<?xml version="1.0"?>
<gpx xmlns="http://www.topografix.com/GPX/1/1" xmlns:xsi="http://www.w3.org/2001/XMLSchema-instance" xmlns:wptx1="http://www.garmin.com/xmlschemas/WaypointExtension/v1" xmlns:gpxtrx="http://www.garmin.com/xmlschemas/GpxExtensions/v3" xmlns:gpxtpx="http://www.garmin.com/xmlschemas/TrackPointExtension/v1" xmlns:gpxx="http://www.garmin.com/xmlschemas/GpxExtensions/v3" xmlns:trp="http://www.garmin.com/xmlschemas/TripExtensions/v1" xmlns:adv="http://www.garmin.com/xmlschemas/AdventuresExtensions/v1" xmlns:prs="http://www.garmin.com/xmlschemas/PressureExtension/v1" xmlns:tmd="http://www.garmin.com/xmlschemas/TripMetaDataExtensions/v1" xmlns:vptm="http://www.garmin.com/xmlschemas/ViaPointTransportationModeExtensions/v1" xmlns:ctx="http://www.garmin.com/xmlschemas/CreationTimeExtension/v1" xmlns:gpxacc="http://www.garmin.com/xmlschemas/AccelerationExtension/v1" xmlns:gpxpx="http://www.garmin.com/xmlschemas/PowerExtension/v1" xmlns:vidx1="http://www.garmin.com/xmlschemas/VideoExtension/v1" creator="Garmin Desktop App" version="1.1" xsi:schemaLocation="http://www.topografix.com/GPX/1/1 http://www.topografix.com/GPX/1/1/gpx.xsd http://www.garmin.com/xmlschemas/WaypointExtension/v1 http://www8.garmin.com/xmlschemas/WaypointExtensionv1.xsd http://www.garmin.com/xmlschemas/TrackPointExtension/v1 http://www.garmin.com/xmlschemas/TrackPointExtensionv1.xsd http://www.garmin.com/xmlschemas/GpxExtensions/v3 http://www8.garmin.com/xmlschemas/GpxExtensionsv3.xsd http://www.garmin.com/xmlschemas/ActivityExtension/v1 http://www8.garmin.com/xmlschemas/ActivityExtensionv1.xsd http://www.garmin.com/xmlschemas/AdventuresExtensions/v1 http://www8.garmin.com/xmlschemas/AdventuresExtensionv1.xsd http://www.garmin.com/xmlschemas/PressureExtension/v1 http://www.garmin.com/xmlschemas/PressureExtensionv1.xsd http://www.garmin.com/xmlschemas/TripExtensions/v1 http://www.garmin.com/xmlschemas/TripExtensionsv1.xsd http://www.garmin.com/xmlschemas/TripMetaDataExtensions/v1 http://www.garmin.com/xmlschemas/TripMetaDataExtensionsv1.xsd http://www.garmin.com/xmlschemas/ViaPointTransportationModeExtensions/v1 http://www.garmin.com/xmlschemas/ViaPointTransportationModeExtensionsv1.xsd http://www.garmin.com/xmlschemas/CreationTimeExtension/v1 http://www.garmin.com/xmlschemas/CreationTimeExtensionsv1.xsd http://www.garmin.com/xmlschemas/AccelerationExtension/v1 http://www.garmin.com/xmlschemas/AccelerationExtensionv1.xsd http://www.garmin.com/xmlschemas/PowerExtension/v1 http://www.garmin.com/xmlschemas/PowerExtensionv1.xsd http://www.garmin.com/xmlschemas/VideoExtension/v1 http://www.garmin.com/xmlschemas/VideoExtensionv1.xsd">

  <metadata>
    <link href="http://www.garmin.com">
      <text>Garmin International</text>
    </link>
    <time>2018-02-27T03:24:35Z</time>
    <bounds maxlat="12.969006970524788" maxlon="99.733824776485562" minlat="12.889436641708016" minlon="99.670992353931069"/>
  </metadata>

  <wpt lat="12.89985585026443" lon="99.680297942832112">
    <ele>115</ele>
    <name>Kaeng Krachan Resort</name>
    <cmt>26-JAN-13 12:45:30</cmt>
    <desc>26-JAN-13 12:45:30</desc>
    <sym>Lodging</sym>
    <type>user</type>
    <extensions>
      <gpxx:WaypointExtension>
        <gpxx:DisplayMode>SymbolOnly</gpxx:DisplayMode>
      </gpxx:WaypointExtension>
      <wptx1:WaypointExtension>
        <wptx1:DisplayMode>SymbolOnly</wptx1:DisplayMode>
      </wptx1:WaypointExtension>
    </extensions>
  </wpt>

  <wpt lat="12.960207061842084" lon="99.687892617657781">
    <ele>114</ele>
    <name>Water Saturday</name>
    <cmt>26-JAN-13 13:56:45</cmt>
    <desc>26-JAN-13 13:56:45</desc>
    <sym>Drinking Water</sym>
    <type>user</type>
    <extensions>
      <gpxx:WaypointExtension>
        <gpxx:DisplayMode>SymbolOnly</gpxx:DisplayMode>
      </gpxx:WaypointExtension>
      <wptx1:WaypointExtension>
        <wptx1:DisplayMode>SymbolOnly</wptx1:DisplayMode>
      </wptx1:WaypointExtension>
    </extensions>
  </wpt>

  <trk>
    <name>Saturday (Long)</name>
    <extensions>
      <gpxx:TrackExtension>
        <gpxx:DisplayColor>Red</gpxx:DisplayColor>
      </gpxx:TrackExtension>
    </extensions>
    <trkseg>
      <trkpt lat="12.900056345388293" lon="99.680652664974332">
        <ele>110.689999999999998</ele>
        <time>2013-01-26T05:21:52Z</time>
      </trkpt>
      <trkpt lat="12.90030000731349" lon="99.681442994624376">
        <ele>110.209999999999994</ele>
        <time>2013-01-26T05:22:27Z</time>
      </trkpt>
      <trkpt lat="12.900185594335198" lon="99.681652374565601">
        <ele>109.730000000000004</ele>
        <time>2013-01-26T05:22:33Z</time>
      </trkpt>
      <trkpt lat="12.901298962533474" lon="99.683311153203249">
        <ele>105.400000000000006</ele>
        <time>2013-01-26T05:23:05Z</time>
      </trkpt>
      <trkpt lat="12.902169339358807" lon="99.683097330853343">
        <ele>107.319999999999993</ele>
        <time>2013-01-26T05:23:21Z</time>
      </trkpt>
      <trkpt lat="12.904483918100595" lon="99.68298970721662">
        <ele>109.730000000000004</ele>
        <time>2013-01-26T05:23:59Z</time>
      </trkpt>
      <trkpt lat="12.905583037063479" lon="99.683552635833621">
        <ele>109.25</ele>
        <time>2013-01-26T05:24:18Z</time>
      </trkpt>
      <trkpt lat="12.906542513519526" lon="99.68364785425365">
        <ele>109.730000000000004</ele>
        <time>2013-01-26T05:24:32Z</time>
      </trkpt>
      <trkpt lat="12.907317336648703" lon="99.683179557323456">
        <ele>111.170000000000002</ele>
        <time>2013-01-26T05:24:45Z</time>
      </trkpt>
      <trkpt lat="12.907939609140158" lon="99.681878350675106">
        <ele>118.379999999999995</ele>
        <time>2013-01-26T05:25:12Z</time>
      </trkpt>
      <trkpt lat="12.908451911062002" lon="99.681508373469114">
        <ele>119.819999999999993</ele>
        <time>2013-01-26T05:25:26Z</time>
      </trkpt>
      <trkpt lat="12.908836388960481" lon="99.681495046243072">
        <ele>119.819999999999993</ele>
        <time>2013-01-26T05:25:35Z</time>
      </trkpt>
      <trkpt lat="12.909959899261594" lon="99.683406455442309">
        <ele>106.840000000000003</ele>
        <time>2013-01-26T05:26:06Z</time>
      </trkpt>
      <trkpt lat="12.910512685775757" lon="99.683004962280393">
        <ele>106.840000000000003</ele>
        <time>2013-01-26T05:26:19Z</time>
      </trkpt>
      <trkpt lat="12.910865982994437" lon="99.682347821071744">
        <ele>108.290000000000006</ele>
        <time>2013-01-26T05:26:31Z</time>
      </trkpt>
      <trkpt lat="12.911068489775062" lon="99.681951189413667">
        <ele>107.319999999999993</ele>
        <time>2013-01-26T05:26:39Z</time>
      </trkpt>
      <trkpt lat="12.913509886711836" lon="99.681263621896505">
        <ele>96.75</ele>
        <time>2013-01-26T05:27:10Z</time>
      </trkpt>
      <trkpt lat="12.914919136092067" lon="99.681586492806673">
        <ele>105.879999999999995</ele>
        <time>2013-01-26T05:27:48Z</time>
      </trkpt>
      <trkpt lat="12.915208311751485" lon="99.681561347097158">
        <ele>105.400000000000006</ele>
        <time>2013-01-26T05:27:53Z</time>
      </trkpt>
      <trkpt lat="12.916046585887671" lon="99.681556988507509">
        <ele>98.670000000000002</ele>
        <time>2013-01-26T05:28:03Z</time>
      </trkpt>
      <trkpt lat="12.916479175910354" lon="99.679300496354699">
        <ele>92.420000000000002</ele>
        <time>2013-01-26T05:28:32Z</time>
      </trkpt>
      <trkpt lat="12.917478634044528" lon="99.679075945168734">
        <ele>97.230000000000004</ele>
        <time>2013-01-26T05:28:54Z</time>
      </trkpt>
      <trkpt lat="12.91778851300478" lon="99.678902523592114">
        <ele>97.230000000000004</ele>
        <time>2013-01-26T05:29:01Z</time>
      </trkpt>
      <trkpt lat="12.919275797903538" lon="99.678632123395801">
        <ele>99.629999999999995</ele>
        <time>2013-01-26T05:29:28Z</time>
      </trkpt>
      <trkpt lat="12.920577256008983" lon="99.678147565573454">
        <ele>101.079999999999998</ele>
        <time>2013-01-26T05:29:56Z</time>
      </trkpt>
      <trkpt lat="12.921030884608626" lon="99.677851013839245">
        <ele>102.040000000000006</ele>
        <time>2013-01-26T05:30:08Z</time>
      </trkpt>
      <trkpt lat="12.921693976968527" lon="99.676754828542471">
        <ele>104.920000000000002</ele>
        <time>2013-01-26T05:30:38Z</time>
      </trkpt>
      <trkpt lat="12.922237291932106" lon="99.675058834254742">
        <ele>114.049999999999997</ele>
        <time>2013-01-26T05:31:46Z</time>
      </trkpt>
      <trkpt lat="12.922769291326404" lon="99.674384174868464">
        <ele>118.379999999999995</ele>
        <time>2013-01-26T05:32:12Z</time>
      </trkpt>
      <trkpt lat="12.923479406163096" lon="99.673688309267163">
        <ele>121.260000000000005</ele>
        <time>2013-01-26T05:32:39Z</time>
      </trkpt>
      <trkpt lat="12.925016395747662" lon="99.672129526734352">
        <ele>121.739999999999995</ele>
        <time>2013-01-26T05:33:44Z</time>
      </trkpt>
      <trkpt lat="12.925312109291553" lon="99.671477414667606">
        <ele>122.219999999999999</ele>
        <time>2013-01-26T05:34:03Z</time>
      </trkpt>
      <trkpt lat="12.926466967910528" lon="99.671805230900645">
        <ele>115.980000000000004</ele>
        <time>2013-01-26T05:34:22Z</time>
      </trkpt>
      <trkpt lat="12.927328292280436" lon="99.671591576188803">
        <ele>115.5</ele>
        <time>2013-01-26T05:34:35Z</time>
      </trkpt>
      <trkpt lat="12.928818427026272" lon="99.671655362471938">
        <ele>124.150000000000006</ele>
        <time>2013-01-26T05:35:16Z</time>
      </trkpt>
      <trkpt lat="12.927901111543179" lon="99.672745512798429">
        <ele>115.980000000000004</ele>
        <time>2013-01-26T05:36:10Z</time>
      </trkpt>
      <trkpt lat="12.927957605570555" lon="99.672790188342333">
        <ele>115.980000000000004</ele>
        <time>2013-01-26T05:38:23Z</time>
      </trkpt>
      <trkpt lat="12.928790515288711" lon="99.671794082969427">
        <ele>123.670000000000002</ele>
        <time>2013-01-26T05:39:02Z</time>
      </trkpt>
      <trkpt lat="12.929181028157473" lon="99.671309441328049">
        <ele>123.670000000000002</ele>
        <time>2013-01-26T05:39:19Z</time>
      </trkpt>
      <trkpt lat="12.929503144696355" lon="99.671066869050264">
        <ele>127.030000000000001</ele>
        <time>2013-01-26T05:39:31Z</time>
      </trkpt>
      <trkpt lat="12.930847182869911" lon="99.672190379351377">
        <ele>132.319999999999993</ele>
        <time>2013-01-26T05:40:09Z</time>
      </trkpt>
      <trkpt lat="12.931577498093247" lon="99.673020606860518">
        <ele>125.109999999999999</ele>
        <time>2013-01-26T05:40:23Z</time>
      </trkpt>
      <trkpt lat="12.931899363175035" lon="99.673337023705244">
        <ele>119.819999999999993</ele>
        <time>2013-01-26T05:40:28Z</time>
      </trkpt>
      <trkpt lat="12.932075299322605" lon="99.67475775629282">
        <ele>110.209999999999994</ele>
        <time>2013-01-26T05:40:45Z</time>
      </trkpt>
      <trkpt lat="12.932518366724253" lon="99.674747949466109">
        <ele>108.769999999999996</ele>
        <time>2013-01-26T05:40:54Z</time>
      </trkpt>
      <trkpt lat="12.932625068351626" lon="99.674922712147236">
        <ele>109.730000000000004</ele>
        <time>2013-01-26T05:40:58Z</time>
      </trkpt>
      <trkpt lat="12.932680808007717" lon="99.675202332437038">
        <ele>109.25</ele>
        <time>2013-01-26T05:41:02Z</time>
      </trkpt>
      <trkpt lat="12.93294726870954" lon="99.675779677927494">
        <ele>105.879999999999995</ele>
        <time>2013-01-26T05:41:10Z</time>
      </trkpt>
      <trkpt lat="12.933242730796337" lon="99.677692679688334">
        <ele>101.079999999999998</ele>
        <time>2013-01-26T05:41:45Z</time>
      </trkpt>
      <trkpt lat="12.933683199808002" lon="99.677728973329067">
        <ele>101.560000000000002</ele>
        <time>2013-01-26T05:42:25Z</time>
      </trkpt>
      <trkpt lat="12.933574486523867" lon="99.677816983312368">
        <ele>101.560000000000002</ele>
        <time>2013-01-26T05:42:32Z</time>
      </trkpt>
      <trkpt lat="12.93327609077096" lon="99.677697792649269">
        <ele>101.079999999999998</ele>
        <time>2013-01-26T05:43:03Z</time>
      </trkpt>
      <trkpt lat="12.932844674214721" lon="99.677965845912695">
        <ele>101.079999999999998</ele>
        <time>2013-01-26T05:43:19Z</time>
      </trkpt>
      <trkpt lat="12.931133843958378" lon="99.678347222507">
        <ele>105.879999999999995</ele>
        <time>2013-01-26T05:43:58Z</time>
      </trkpt>
      <trkpt lat="12.931077014654875" lon="99.679782120510936">
        <ele>108.769999999999996</ele>
        <time>2013-01-26T05:44:29Z</time>
      </trkpt>
      <trkpt lat="12.931079864501953" lon="99.680450912564993">
        <ele>109.25</ele>
        <time>2013-01-26T05:44:43Z</time>
      </trkpt>
      <trkpt lat="12.931790985167027" lon="99.681918248534203">
        <ele>101.079999999999998</ele>
        <time>2013-01-26T05:45:04Z</time>
      </trkpt>
      <trkpt lat="12.932503363117576" lon="99.68253968283534">
        <ele>96.269999999999996</ele>
        <time>2013-01-26T05:45:14Z</time>
      </trkpt>
      <trkpt lat="12.933361334726214" lon="99.68392638489604">
        <ele>98.189999999999998</ele>
        <time>2013-01-26T05:45:36Z</time>
      </trkpt>
      <trkpt lat="12.933458313345909" lon="99.684069883078337">
        <ele>97.709999999999994</ele>
        <time>2013-01-26T05:45:39Z</time>
      </trkpt>
      <trkpt lat="12.934125764295459" lon="99.684448326006532">
        <ele>97.709999999999994</ele>
        <time>2013-01-26T05:45:52Z</time>
      </trkpt>
      <trkpt lat="12.934553157538176" lon="99.684893572703004">
        <ele>100.109999999999999</ele>
        <time>2013-01-26T05:46:04Z</time>
      </trkpt>
      <trkpt lat="12.934846356511116" lon="99.685170343145728">
        <ele>100.109999999999999</ele>
        <time>2013-01-26T05:46:12Z</time>
      </trkpt>
      <trkpt lat="12.937137130647898" lon="99.683676436543465">
        <ele>104.439999999999998</ele>
        <time>2013-01-26T05:47:03Z</time>
      </trkpt>
      <trkpt lat="12.938258713111281" lon="99.683185676112771">
        <ele>105.879999999999995</ele>
        <time>2013-01-26T05:47:24Z</time>
      </trkpt>
      <trkpt lat="12.938735643401742" lon="99.683072855696082">
        <ele>106.359999999999999</ele>
        <time>2013-01-26T05:47:34Z</time>
      </trkpt>
      <trkpt lat="12.938902694731951" lon="99.683174360543489">
        <ele>106.840000000000003</ele>
        <time>2013-01-26T05:47:38Z</time>
      </trkpt>
      <trkpt lat="12.939675925299525" lon="99.684265349060297">
        <ele>104.920000000000002</ele>
        <time>2013-01-26T05:47:58Z</time>
      </trkpt>
      <trkpt lat="12.940826509147882" lon="99.685374945402145">
        <ele>99.150000000000006</ele>
        <time>2013-01-26T05:48:16Z</time>
      </trkpt>
      <trkpt lat="12.940941508859396" lon="99.685818934813142">
        <ele>99.629999999999995</ele>
        <time>2013-01-26T05:48:38Z</time>
      </trkpt>
      <trkpt lat="12.941001020371914" lon="99.685528920963407">
        <ele>99.629999999999995</ele>
        <time>2013-01-26T05:48:56Z</time>
      </trkpt>
      <trkpt lat="12.94177676551044" lon="99.685488017275929">
        <ele>102.519999999999996</ele>
        <time>2013-01-26T05:51:20Z</time>
      </trkpt>
      <trkpt lat="12.942100474610925" lon="99.685619110241532">
        <ele>103.959999999999994</ele>
        <time>2013-01-26T05:51:28Z</time>
      </trkpt>
      <trkpt lat="12.943383073434234" lon="99.686117246747017">
        <ele>105.400000000000006</ele>
        <time>2013-01-26T05:51:57Z</time>
      </trkpt>
      <trkpt lat="12.943982547149062" lon="99.68544359318912">
        <ele>106.840000000000003</ele>
        <time>2013-01-26T05:52:16Z</time>
      </trkpt>
      <trkpt lat="12.944799531251192" lon="99.684956856071949">
        <ele>110.209999999999994</ele>
        <time>2013-01-26T05:52:39Z</time>
      </trkpt>
      <trkpt lat="12.944889636710286" lon="99.68459090217948">
        <ele>109.25</ele>
        <time>2013-01-26T05:52:46Z</time>
      </trkpt>
      <trkpt lat="12.944683693349361" lon="99.683963935822248">
        <ele>110.689999999999998</ele>
        <time>2013-01-26T05:52:58Z</time>
      </trkpt>
      <trkpt lat="12.944761980324984" lon="99.683394134044647">
        <ele>110.689999999999998</ele>
        <time>2013-01-26T05:53:19Z</time>
      </trkpt>
      <trkpt lat="12.945369835942984" lon="99.683452975004911">
        <ele>114.049999999999997</ele>
        <time>2013-01-26T05:53:40Z</time>
      </trkpt>
      <trkpt lat="12.9456383921206" lon="99.683302771300077">
        <ele>114.530000000000001</ele>
        <time>2013-01-26T05:53:49Z</time>
      </trkpt>
      <trkpt lat="12.946283798664808" lon="99.68216098845005">
        <ele>125.109999999999999</ele>
        <time>2013-01-26T05:54:45Z</time>
      </trkpt>
      <trkpt lat="12.945925639942288" lon="99.681892767548561">
        <ele>122.219999999999999</ele>
        <time>2013-01-26T05:54:55Z</time>
      </trkpt>
      <trkpt lat="12.94585632160306" lon="99.681579787284136">
        <ele>124.150000000000006</ele>
        <time>2013-01-26T05:55:02Z</time>
      </trkpt>
      <trkpt lat="12.945863949134946" lon="99.681555479764938">
        <ele>123.670000000000002</ele>
        <time>2013-01-26T05:55:03Z</time>
      </trkpt>
      <trkpt lat="12.946586217731237" lon="99.680688455700874">
        <ele>125.109999999999999</ele>
        <time>2013-01-26T05:55:31Z</time>
      </trkpt>
      <trkpt lat="12.946987459436059" lon="99.68054655008018">
        <ele>127.510000000000005</ele>
        <time>2013-01-26T05:55:43Z</time>
      </trkpt>
      <trkpt lat="12.947632363066077" lon="99.680346138775349">
        <ele>128.949999999999989</ele>
        <time>2013-01-26T05:56:01Z</time>
      </trkpt>
      <trkpt lat="12.947325585409999" lon="99.678655173629522">
        <ele>126.549999999999997</ele>
        <time>2013-01-26T05:56:33Z</time>
      </trkpt>
      <trkpt lat="12.947463551536202" lon="99.677670216187835">
        <ele>128.949999999999989</ele>
        <time>2013-01-26T05:56:55Z</time>
      </trkpt>
      <trkpt lat="12.947654156014323" lon="99.677437953650951">
        <ele>131.840000000000003</ele>
        <time>2013-01-26T05:57:08Z</time>
      </trkpt>
      <trkpt lat="12.947832439094782" lon="99.677442982792854">
        <ele>135.199999999999989</ele>
        <time>2013-01-26T05:57:19Z</time>
      </trkpt>
      <trkpt lat="12.948098564520478" lon="99.677532082423568">
        <ele>135.199999999999989</ele>
        <time>2013-01-26T05:57:30Z</time>
      </trkpt>
      <trkpt lat="12.948252791538835" lon="99.677630988880992">
        <ele>132.319999999999993</ele>
        <time>2013-01-26T05:57:33Z</time>
      </trkpt>
      <trkpt lat="12.948126224800944" lon="99.678366417065263">
        <ele>129.430000000000007</ele>
        <time>2013-01-26T05:57:46Z</time>
      </trkpt>
      <trkpt lat="12.948634084314108" lon="99.678942337632179">
        <ele>137.610000000000014</ele>
        <time>2013-01-26T05:58:21Z</time>
      </trkpt>
      <trkpt lat="12.949026441201568" lon="99.67838385142386">
        <ele>137.129999999999995</ele>
        <time>2013-01-26T05:58:43Z</time>
      </trkpt>
      <trkpt lat="12.949653491377831" lon="99.676963286474347">
        <ele>133.280000000000001</ele>
        <time>2013-01-26T05:59:08Z</time>
      </trkpt>
      <trkpt lat="12.950236788019538" lon="99.676618371158838">
        <ele>129.919999999999987</ele>
        <time>2013-01-26T05:59:17Z</time>
      </trkpt>
      <trkpt lat="12.950685219839215" lon="99.676568163558841">
        <ele>129.919999999999987</ele>
        <time>2013-01-26T05:59:24Z</time>
      </trkpt>
      <trkpt lat="12.951089227572083" lon="99.676852226257324">
        <ele>128.469999999999999</ele>
        <time>2013-01-26T05:59:32Z</time>
      </trkpt>
      <trkpt lat="12.95261112973094" lon="99.677201751619577">
        <ele>139.050000000000011</ele>
        <time>2013-01-26T06:00:37Z</time>
      </trkpt>
      <trkpt lat="12.954468727111816" lon="99.677031515166163">
        <ele>139.050000000000011</ele>
        <time>2013-01-26T06:01:58Z</time>
      </trkpt>
      <trkpt lat="12.952824616804719" lon="99.677117429673672">
        <ele>139.530000000000001</ele>
        <time>2013-01-26T06:03:59Z</time>
      </trkpt>
      <trkpt lat="12.952449861913919" lon="99.677200159057975">
        <ele>137.129999999999995</ele>
        <time>2013-01-26T06:04:15Z</time>
      </trkpt>
      <trkpt lat="12.952231094241142" lon="99.677078872919083">
        <ele>133.759999999999991</ele>
        <time>2013-01-26T06:04:30Z</time>
      </trkpt>
      <trkpt lat="12.952374927699566" lon="99.67799099162221">
        <ele>134.719999999999999</ele>
        <time>2013-01-26T06:06:45Z</time>
      </trkpt>
      <trkpt lat="12.95210100710392" lon="99.678948204964399">
        <ele>152.509999999999991</ele>
        <time>2013-01-26T06:08:46Z</time>
      </trkpt>
      <trkpt lat="12.951965052634478" lon="99.679193627089262">
        <ele>156.349999999999994</ele>
        <time>2013-01-26T06:09:13Z</time>
      </trkpt>
      <trkpt lat="12.951889196410775" lon="99.67947450466454">
        <ele>157.789999999999992</ele>
        <time>2013-01-26T06:09:26Z</time>
      </trkpt>
      <trkpt lat="12.951665399596095" lon="99.680574545636773">
        <ele>159.240000000000009</ele>
        <time>2013-01-26T06:10:03Z</time>
      </trkpt>
      <trkpt lat="12.951680067926645" lon="99.680604217574">
        <ele>159.240000000000009</ele>
        <time>2013-01-26T06:10:04Z</time>
      </trkpt>
      <trkpt lat="12.95202573761344" lon="99.681184580549598">
        <ele>152.030000000000001</ele>
        <time>2013-01-26T06:10:19Z</time>
      </trkpt>
      <trkpt lat="12.951978463679552" lon="99.681648770347238">
        <ele>144.340000000000003</ele>
        <time>2013-01-26T06:10:33Z</time>
      </trkpt>
      <trkpt lat="12.951432215049863" lon="99.682518057525158">
        <ele>139.050000000000011</ele>
        <time>2013-01-26T06:10:52Z</time>
      </trkpt>
      <trkpt lat="12.951249908655882" lon="99.682968752458692">
        <ele>135.199999999999989</ele>
        <time>2013-01-26T06:10:59Z</time>
      </trkpt>
      <trkpt lat="12.951041534543037" lon="99.683562694117427">
        <ele>131.840000000000003</ele>
        <time>2013-01-26T06:11:10Z</time>
      </trkpt>
      <trkpt lat="12.951191235333681" lon="99.683853210881352">
        <ele>130.400000000000006</ele>
        <time>2013-01-26T06:11:15Z</time>
      </trkpt>
      <trkpt lat="12.952140150591731" lon="99.684341456741095">
        <ele>134.719999999999999</ele>
        <time>2013-01-26T06:11:40Z</time>
      </trkpt>
      <trkpt lat="12.952625211328268" lon="99.685280900448561">
        <ele>133.759999999999991</ele>
        <time>2013-01-26T06:12:02Z</time>
      </trkpt>
      <trkpt lat="12.95328738167882" lon="99.685552138835192">
        <ele>137.129999999999995</ele>
        <time>2013-01-26T06:12:21Z</time>
      </trkpt>
      <trkpt lat="12.954877512529492" lon="99.685355918481946">
        <ele>141.449999999999989</ele>
        <time>2013-01-26T06:13:03Z</time>
      </trkpt>
      <trkpt lat="12.955604055896401" lon="99.685054337605834">
        <ele>145.300000000000011</ele>
        <time>2013-01-26T06:13:30Z</time>
      </trkpt>
      <trkpt lat="12.955793486908078" lon="99.684856273233891">
        <ele>146.259999999999991</ele>
        <time>2013-01-26T06:13:42Z</time>
      </trkpt>
      <trkpt lat="12.956322636455297" lon="99.684163006022573">
        <ele>142.409999999999997</ele>
        <time>2013-01-26T06:14:00Z</time>
      </trkpt>
      <trkpt lat="12.957446314394474" lon="99.68380518257618">
        <ele>135.680000000000007</ele>
        <time>2013-01-26T06:14:13Z</time>
      </trkpt>
      <trkpt lat="12.957942606881261" lon="99.683880368247628">
        <ele>131.840000000000003</ele>
        <time>2013-01-26T06:14:18Z</time>
      </trkpt>
      <trkpt lat="12.958265896886587" lon="99.684094693511724">
        <ele>130.400000000000006</ele>
        <time>2013-01-26T06:14:22Z</time>
      </trkpt>
      <trkpt lat="12.958564208820462" lon="99.684583861380816">
        <ele>127.030000000000001</ele>
        <time>2013-01-26T06:14:28Z</time>
      </trkpt>
      <trkpt lat="12.959391502663493" lon="99.685393301770091">
        <ele>128.949999999999989</ele>
        <time>2013-01-26T06:14:44Z</time>
      </trkpt>
      <trkpt lat="12.959608426317573" lon="99.685734445229173">
        <ele>128.949999999999989</ele>
        <time>2013-01-26T06:14:56Z</time>
      </trkpt>
      <trkpt lat="12.960121566429734" lon="99.687950871884823">
        <ele>114.530000000000001</ele>
        <time>2013-01-26T06:15:26Z</time>
      </trkpt>
      <trkpt lat="12.960264310240746" lon="99.687903681769967">
        <ele>114.049999999999997</ele>
        <time>2013-01-26T06:15:35Z</time>
      </trkpt>
      <trkpt lat="12.960181664675474" lon="99.687852887436748">
        <ele>117.420000000000002</ele>
        <time>2013-01-26T06:37:51Z</time>
      </trkpt>
      <trkpt lat="12.958516264334321" lon="99.689017217606306">
        <ele>119.340000000000003</ele>
        <time>2013-01-26T06:40:12Z</time>
      </trkpt>
      <trkpt lat="12.957028895616531" lon="99.689374538138509">
        <ele>115.5</ele>
        <time>2013-01-26T06:40:38Z</time>
      </trkpt>
      <trkpt lat="12.956134546548128" lon="99.690718073397875">
        <ele>110.209999999999994</ele>
        <time>2013-01-26T06:40:56Z</time>
      </trkpt>
      <trkpt lat="12.953728102147579" lon="99.692136961966753">
        <ele>103.959999999999994</ele>
        <time>2013-01-26T06:41:31Z</time>
      </trkpt>
      <trkpt lat="12.953578904271126" lon="99.693341609090567">
        <ele>100.109999999999999</ele>
        <time>2013-01-26T06:41:50Z</time>
      </trkpt>
      <trkpt lat="12.953431718051434" lon="99.693228369578719">
        <ele>100.109999999999999</ele>
        <time>2013-01-26T06:42:07Z</time>
      </trkpt>
      <trkpt lat="12.953643780201674" lon="99.693751148879528">
        <ele>102.040000000000006</ele>
        <time>2013-01-26T06:46:24Z</time>
      </trkpt>
      <trkpt lat="12.954015014693141" lon="99.693701695650816">
        <ele>105.879999999999995</ele>
        <time>2013-01-26T06:46:40Z</time>
      </trkpt>
      <trkpt lat="12.95412003993988" lon="99.693510420620441">
        <ele>106.359999999999999</ele>
        <time>2013-01-26T06:46:48Z</time>
      </trkpt>
      <trkpt lat="12.954446850344539" lon="99.693360468372703">
        <ele>108.769999999999996</ele>
        <time>2013-01-26T06:47:01Z</time>
      </trkpt>
      <trkpt lat="12.955369194969535" lon="99.693243959918618">
        <ele>113.569999999999993</ele>
        <time>2013-01-26T06:47:40Z</time>
      </trkpt>
      <trkpt lat="12.955641355365515" lon="99.693099707365036">
        <ele>115.5</ele>
        <time>2013-01-26T06:47:52Z</time>
      </trkpt>
      <trkpt lat="12.955866912379861" lon="99.692786140367389">
        <ele>115.010000000000005</ele>
        <time>2013-01-26T06:48:03Z</time>
      </trkpt>
      <trkpt lat="12.956758579239249" lon="99.693134492263198">
        <ele>123.189999999999998</ele>
        <time>2013-01-26T06:48:49Z</time>
      </trkpt>
      <trkpt lat="12.956918170675635" lon="99.692580448463559">
        <ele>116.939999999999998</ele>
        <time>2013-01-26T06:49:10Z</time>
      </trkpt>
      <trkpt lat="12.957285717129707" lon="99.692464862018824">
        <ele>115.010000000000005</ele>
        <time>2013-01-26T06:49:17Z</time>
      </trkpt>
      <trkpt lat="12.957502976059914" lon="99.692673236131668">
        <ele>115.5</ele>
        <time>2013-01-26T06:49:26Z</time>
      </trkpt>
      <trkpt lat="12.957681845873594" lon="99.692669464275241">
        <ele>115.980000000000004</ele>
        <time>2013-01-26T06:49:31Z</time>
      </trkpt>
      <trkpt lat="12.957862978801131" lon="99.692444326356053">
        <ele>119.340000000000003</ele>
        <time>2013-01-26T06:49:51Z</time>
      </trkpt>
      <trkpt lat="12.958187023177743" lon="99.692130004987121">
        <ele>120.299999999999997</ele>
        <time>2013-01-26T06:50:09Z</time>
      </trkpt>
      <trkpt lat="12.958460943773389" lon="99.691349230706692">
        <ele>119.340000000000003</ele>
        <time>2013-01-26T06:50:24Z</time>
      </trkpt>
      <trkpt lat="12.959199473261833" lon="99.691170696169138">
        <ele>128.949999999999989</ele>
        <time>2013-01-26T06:51:07Z</time>
      </trkpt>
      <trkpt lat="12.959464844316244" lon="99.690705165266991">
        <ele>127.030000000000001</ele>
        <time>2013-01-26T06:51:17Z</time>
      </trkpt>
      <trkpt lat="12.960221227258444" lon="99.690257739275694">
        <ele>119.340000000000003</ele>
        <time>2013-01-26T06:51:30Z</time>
      </trkpt>
      <trkpt lat="12.960822461172938" lon="99.690395202487707">
        <ele>109.25</ele>
        <time>2013-01-26T06:51:39Z</time>
      </trkpt>
      <trkpt lat="12.961285980418324" lon="99.691182263195515">
        <ele>111.650000000000006</ele>
        <time>2013-01-26T06:52:10Z</time>
      </trkpt>
      <trkpt lat="12.961081378161907" lon="99.691805373877287">
        <ele>114.530000000000001</ele>
        <time>2013-01-26T06:52:34Z</time>
      </trkpt>
      <trkpt lat="12.960649374872446" lon="99.693661881610751">
        <ele>115.5</ele>
        <time>2013-01-26T06:53:19Z</time>
      </trkpt>
      <trkpt lat="12.960554659366608" lon="99.694335116073489">
        <ele>108.290000000000006</ele>
        <time>2013-01-26T06:53:37Z</time>
      </trkpt>
      <trkpt lat="12.960950201377273" lon="99.694687658920884">
        <ele>106.359999999999999</ele>
        <time>2013-01-26T06:53:46Z</time>
      </trkpt>
      <trkpt lat="12.962273955345154" lon="99.694966357201338">
        <ele>106.840000000000003</ele>
        <time>2013-01-26T06:54:10Z</time>
      </trkpt>
      <trkpt lat="12.96209248714149" lon="99.695652332156897">
        <ele>102.519999999999996</ele>
        <time>2013-01-26T06:54:21Z</time>
      </trkpt>
      <trkpt lat="12.962329527363181" lon="99.698931751772761">
        <ele>95.310000000000002</ele>
        <time>2013-01-26T06:55:05Z</time>
      </trkpt>
      <trkpt lat="12.962661031633615" lon="99.698986569419503">
        <ele>94.349999999999994</ele>
        <time>2013-01-26T06:55:11Z</time>
      </trkpt>
      <trkpt lat="12.962795225903392" lon="99.698797976598144">
        <ele>94.829999999999998</ele>
        <time>2013-01-26T06:55:15Z</time>
      </trkpt>
      <trkpt lat="12.962846606969833" lon="99.698694963008165">
        <ele>94.349999999999994</ele>
        <time>2013-01-26T06:55:17Z</time>
      </trkpt>
      <trkpt lat="12.963245920836926" lon="99.698914987966418">
        <ele>96.269999999999996</ele>
        <time>2013-01-26T06:55:27Z</time>
      </trkpt>
      <trkpt lat="12.964030718430877" lon="99.699606997892261">
        <ele>92.900000000000006</ele>
        <time>2013-01-26T06:55:43Z</time>
      </trkpt>
      <trkpt lat="12.964977035298944" lon="99.699731720611453">
        <ele>90.980000000000004</ele>
        <time>2013-01-26T06:55:57Z</time>
      </trkpt>
      <trkpt lat="12.965606516227126" lon="99.700119886547327">
        <ele>93.390000000000001</ele>
        <time>2013-01-26T06:56:14Z</time>
      </trkpt>
      <trkpt lat="12.965943133458495" lon="99.700022488832474">
        <ele>96.75</ele>
        <time>2013-01-26T06:56:26Z</time>
      </trkpt>
      <trkpt lat="12.96620674431324" lon="99.70023094676435">
        <ele>97.709999999999994</ele>
        <time>2013-01-26T06:56:37Z</time>
      </trkpt>
      <trkpt lat="12.967010820284486" lon="99.700390454381704">
        <ele>94.349999999999994</ele>
        <time>2013-01-26T06:56:53Z</time>
      </trkpt>
      <trkpt lat="12.967330338433385" lon="99.700604779645801">
        <ele>92.420000000000002</ele>
        <time>2013-01-26T06:56:58Z</time>
      </trkpt>
      <trkpt lat="12.967521362006664" lon="99.700919352471828">
        <ele>90.5</ele>
        <time>2013-01-26T06:57:06Z</time>
      </trkpt>
      <trkpt lat="12.967518763616681" lon="99.700934942811728">
        <ele>90.019999999999996</ele>
        <time>2013-01-26T06:57:08Z</time>
      </trkpt>
      <trkpt lat="12.967407619580626" lon="99.700651131570339">
        <ele>90.980000000000004</ele>
        <time>2013-01-26T06:57:26Z</time>
      </trkpt>
      <trkpt lat="12.966766739264131" lon="99.700306802988052">
        <ele>96.269999999999996</ele>
        <time>2013-01-26T06:58:06Z</time>
      </trkpt>
      <trkpt lat="12.96646767295897" lon="99.700618358328938">
        <ele>95.790000000000006</ele>
        <time>2013-01-26T06:58:20Z</time>
      </trkpt>
      <trkpt lat="12.966282851994038" lon="99.702400434762239">
        <ele>88.579999999999998</ele>
        <time>2013-01-26T06:58:56Z</time>
      </trkpt>
      <trkpt lat="12.966423667967319" lon="99.703135024756193">
        <ele>85.689999999999998</ele>
        <time>2013-01-26T06:59:08Z</time>
      </trkpt>
      <trkpt lat="12.966968743130565" lon="99.703621761873364">
        <ele>85.209999999999994</ele>
        <time>2013-01-26T06:59:22Z</time>
      </trkpt>
      <trkpt lat="12.967985467985272" lon="99.704014118760824">
        <ele>86.180000000000007</ele>
        <time>2013-01-26T06:59:46Z</time>
      </trkpt>
      <trkpt lat="12.968831621110439" lon="99.704628763720393">
        <ele>88.579999999999998</ele>
        <time>2013-01-26T07:00:18Z</time>
      </trkpt>
      <trkpt lat="12.96885852701962" lon="99.70464376732707">
        <ele>88.099999999999994</ele>
        <time>2013-01-26T07:00:31Z</time>
      </trkpt>
      <trkpt lat="12.96881552785635" lon="99.704920453950763">
        <ele>89.060000000000002</ele>
        <time>2013-01-26T07:01:10Z</time>
      </trkpt>
      <trkpt lat="12.968581337481737" lon="99.706435650587082">
        <ele>85.689999999999998</ele>
        <time>2013-01-26T07:02:16Z</time>
      </trkpt>
      <trkpt lat="12.968325857073069" lon="99.706930266693234">
        <ele>78.969999999999999</ele>
        <time>2013-01-26T07:02:59Z</time>
      </trkpt>
      <trkpt lat="12.968694912269711" lon="99.707109471783042">
        <ele>82.329999999999998</ele>
        <time>2013-01-26T07:03:39Z</time>
      </trkpt>
      <trkpt lat="12.969006970524788" lon="99.707442652434111">
        <ele>84.25</ele>
        <time>2013-01-26T07:04:11Z</time>
      </trkpt>
      <trkpt lat="12.96862056478858" lon="99.707995103672147">
        <ele>84.730000000000004</ele>
        <time>2013-01-26T07:07:54Z</time>
      </trkpt>
      <trkpt lat="12.964567746967077" lon="99.709098245948553">
        <ele>80.890000000000001</ele>
        <time>2013-01-26T07:08:59Z</time>
      </trkpt>
      <trkpt lat="12.963911946862936" lon="99.709445843473077">
        <ele>79.450000000000003</ele>
        <time>2013-01-26T07:09:09Z</time>
      </trkpt>
      <trkpt lat="12.962691457942128" lon="99.710524007678032">
        <ele>79.450000000000003</ele>
        <time>2013-01-26T07:09:30Z</time>
      </trkpt>
      <trkpt lat="12.961653610691428" lon="99.712189910933375">
        <ele>78.969999999999999</ele>
        <time>2013-01-26T07:10:01Z</time>
      </trkpt>
      <trkpt lat="12.961267959326506" lon="99.712718473747373">
        <ele>76.560000000000002</ele>
        <time>2013-01-26T07:10:10Z</time>
      </trkpt>
      <trkpt lat="12.960701594129205" lon="99.713905518874526">
        <ele>70.790000000000006</ele>
        <time>2013-01-26T07:10:26Z</time>
      </trkpt>
      <trkpt lat="12.960381740704179" lon="99.714178936555982">
        <ele>70.310000000000002</ele>
        <time>2013-01-26T07:10:31Z</time>
      </trkpt>
      <trkpt lat="12.960000950843096" lon="99.714269964024425">
        <ele>71.760000000000005</ele>
        <time>2013-01-26T07:10:36Z</time>
      </trkpt>
      <trkpt lat="12.959454115480185" lon="99.714496778324246">
        <ele>68.870000000000005</ele>
        <time>2013-01-26T07:10:43Z</time>
      </trkpt>
      <trkpt lat="12.959064608439803" lon="99.714985527098179">
        <ele>71.269999999999996</ele>
        <time>2013-01-26T07:10:54Z</time>
      </trkpt>
      <trkpt lat="12.958390368148685" lon="99.71646367572248">
        <ele>73.680000000000007</ele>
        <time>2013-01-26T07:11:26Z</time>
      </trkpt>
      <trkpt lat="12.958420375362039" lon="99.71777468919754">
        <ele>73.200000000000003</ele>
        <time>2013-01-26T07:11:49Z</time>
      </trkpt>
      <trkpt lat="12.957523930817842" lon="99.718231251463294">
        <ele>74.159999999999997</ele>
        <time>2013-01-26T07:12:09Z</time>
      </trkpt>
      <trkpt lat="12.956916578114033" lon="99.718708768486977">
        <ele>74.159999999999997</ele>
        <time>2013-01-26T07:12:23Z</time>
      </trkpt>
      <trkpt lat="12.956563364714384" lon="99.719179077073932">
        <ele>74.640000000000001</ele>
        <time>2013-01-26T07:12:33Z</time>
      </trkpt>
      <trkpt lat="12.956444006413221" lon="99.719311762601137">
        <ele>74.159999999999997</ele>
        <time>2013-01-26T07:12:36Z</time>
      </trkpt>
      <trkpt lat="12.956048464402556" lon="99.719557939097285">
        <ele>74.159999999999997</ele>
        <time>2013-01-26T07:12:44Z</time>
      </trkpt>
      <trkpt lat="12.955385874956846" lon="99.720475422218442">
        <ele>75.120000000000005</ele>
        <time>2013-01-26T07:13:03Z</time>
      </trkpt>
      <trkpt lat="12.954924115911126" lon="99.721570517867804">
        <ele>75.599999999999994</ele>
        <time>2013-01-26T07:13:22Z</time>
      </trkpt>
      <trkpt lat="12.955007767304778" lon="99.723534565418959">
        <ele>69.349999999999994</ele>
        <time>2013-01-26T07:13:49Z</time>
      </trkpt>
      <trkpt lat="12.954242331907153" lon="99.726552553474903">
        <ele>63.579999999999998</ele>
        <time>2013-01-26T07:14:29Z</time>
      </trkpt>
      <trkpt lat="12.954228082671762" lon="99.726738715544343">
        <ele>62.619999999999997</ele>
        <time>2013-01-26T07:14:32Z</time>
      </trkpt>
      <trkpt lat="12.954305615276098" lon="99.727426618337631">
        <ele>63.100000000000001</ele>
        <time>2013-01-26T07:14:44Z</time>
      </trkpt>
      <trkpt lat="12.954938532784581" lon="99.727956522256136">
        <ele>62.619999999999997</ele>
        <time>2013-01-26T07:14:57Z</time>
      </trkpt>
      <trkpt lat="12.955471370369196" lon="99.729065867140889">
        <ele>62.619999999999997</ele>
        <time>2013-01-26T07:15:17Z</time>
      </trkpt>
      <trkpt lat="12.955470029264688" lon="99.729120684787631">
        <ele>62.140000000000001</ele>
        <time>2013-01-26T07:15:18Z</time>
      </trkpt>
      <trkpt lat="12.955251848325133" lon="99.72948269918561">
        <ele>63.100000000000001</ele>
        <time>2013-01-26T07:15:25Z</time>
      </trkpt>
      <trkpt lat="12.95473812147975" lon="99.729929286986589">
        <ele>64.549999999999997</ele>
        <time>2013-01-26T07:15:40Z</time>
      </trkpt>
      <trkpt lat="12.953744446858764" lon="99.730595480650663">
        <ele>65.030000000000001</ele>
        <time>2013-01-26T07:16:04Z</time>
      </trkpt>
      <trkpt lat="12.953436663374305" lon="99.731242479756474">
        <ele>64.549999999999997</ele>
        <time>2013-01-26T07:16:18Z</time>
      </trkpt>
      <trkpt lat="12.953192749992013" lon="99.731910433620214">
        <ele>59.740000000000002</ele>
        <time>2013-01-26T07:16:28Z</time>
      </trkpt>
      <trkpt lat="12.953401627019048" lon="99.73275943659246">
        <ele>58.299999999999997</ele>
        <time>2013-01-26T07:16:42Z</time>
      </trkpt>
      <trkpt lat="12.953174225986004" lon="99.731913451105356">
        <ele>58.299999999999997</ele>
        <time>2013-01-26T07:17:23Z</time>
      </trkpt>
      <trkpt lat="12.953082025051117" lon="99.731983356177807">
        <ele>57.82</ele>
        <time>2013-01-26T07:18:08Z</time>
      </trkpt>
      <trkpt lat="12.953405063599348" lon="99.731090683490038">
        <ele>63.100000000000001</ele>
        <time>2013-01-26T07:19:02Z</time>
      </trkpt>
      <trkpt lat="12.953158635646105" lon="99.731014156714082">
        <ele>64.549999999999997</ele>
        <time>2013-01-26T07:19:09Z</time>
      </trkpt>
      <trkpt lat="12.946581775322556" lon="99.730074042454362">
        <ele>63.579999999999998</ele>
        <time>2013-01-26T07:21:15Z</time>
      </trkpt>
      <trkpt lat="12.946674562990665" lon="99.728439319878817">
        <ele>61.18</ele>
        <time>2013-01-26T07:21:43Z</time>
      </trkpt>
      <trkpt lat="12.946944711729884" lon="99.727725265547633">
        <ele>59.740000000000002</ele>
        <time>2013-01-26T07:21:56Z</time>
      </trkpt>
      <trkpt lat="12.946737427264452" lon="99.726517852395773">
        <ele>60.700000000000003</ele>
        <time>2013-01-26T07:22:17Z</time>
      </trkpt>
      <trkpt lat="12.946773217990994" lon="99.725514454767108">
        <ele>62.140000000000001</ele>
        <time>2013-01-26T07:22:37Z</time>
      </trkpt>
      <trkpt lat="12.946982262656093" lon="99.724630750715733">
        <ele>62.619999999999997</ele>
        <time>2013-01-26T07:22:53Z</time>
      </trkpt>
      <trkpt lat="12.947355257347226" lon="99.723560968413949">
        <ele>59.740000000000002</ele>
        <time>2013-01-26T07:23:10Z</time>
      </trkpt>
      <trkpt lat="12.947363974526525" lon="99.723069872707129">
        <ele>60.219999999999999</ele>
        <time>2013-01-26T07:23:17Z</time>
      </trkpt>
      <trkpt lat="12.947298679500818" lon="99.722351878881454">
        <ele>61.659999999999997</ele>
        <time>2013-01-26T07:23:30Z</time>
      </trkpt>
      <trkpt lat="12.946698619052768" lon="99.721471108496189">
        <ele>65.510000000000005</ele>
        <time>2013-01-26T07:23:56Z</time>
      </trkpt>
      <trkpt lat="12.946137115359306" lon="99.721478736028075">
        <ele>65.510000000000005</ele>
        <time>2013-01-26T07:24:10Z</time>
      </trkpt>
      <trkpt lat="12.945752386003733" lon="99.721220908686519">
        <ele>65.989999999999995</ele>
        <time>2013-01-26T07:24:20Z</time>
      </trkpt>
      <trkpt lat="12.945281658321619" lon="99.721254268661141">
        <ele>66.469999999999999</ele>
        <time>2013-01-26T07:24:30Z</time>
      </trkpt>
      <trkpt lat="12.94500270858407" lon="99.721498601138592">
        <ele>65.989999999999995</ele>
        <time>2013-01-26T07:24:39Z</time>
      </trkpt>
      <trkpt lat="12.94204012490809" lon="99.721529362723231">
        <ele>74.159999999999997</ele>
        <time>2013-01-26T07:25:56Z</time>
      </trkpt>
      <trkpt lat="12.941455068066716" lon="99.721555346623063">
        <ele>75.120000000000005</ele>
        <time>2013-01-26T07:26:09Z</time>
      </trkpt>
      <trkpt lat="12.939969962462783" lon="99.722025655210018">
        <ele>71.760000000000005</ele>
        <time>2013-01-26T07:26:37Z</time>
      </trkpt>
      <trkpt lat="12.939496301114559" lon="99.723234493285418">
        <ele>67.909999999999997</ele>
        <time>2013-01-26T07:26:56Z</time>
      </trkpt>
      <trkpt lat="12.938413610681891" lon="99.722953531891108">
        <ele>65.030000000000001</ele>
        <time>2013-01-26T07:27:13Z</time>
      </trkpt>
      <trkpt lat="12.937705088406801" lon="99.723142376169562">
        <ele>63.579999999999998</ele>
        <time>2013-01-26T07:27:26Z</time>
      </trkpt>
      <trkpt lat="12.937683211639524" lon="99.72316911444068">
        <ele>63.100000000000001</ele>
        <time>2013-01-26T07:27:27Z</time>
      </trkpt>
      <trkpt lat="12.937532672658563" lon="99.723831955343485">
        <ele>63.579999999999998</ele>
        <time>2013-01-26T07:27:46Z</time>
      </trkpt>
      <trkpt lat="12.93758824467659" lon="99.72491355612874">
        <ele>67.430000000000007</ele>
        <time>2013-01-26T07:28:18Z</time>
      </trkpt>
      <trkpt lat="12.937569888308644" lon="99.725287556648254">
        <ele>67.909999999999997</ele>
        <time>2013-01-26T07:28:29Z</time>
      </trkpt>
      <trkpt lat="12.937391940504313" lon="99.727372387424111">
        <ele>65.510000000000005</ele>
        <time>2013-01-26T07:29:08Z</time>
      </trkpt>
      <trkpt lat="12.93735564686358" lon="99.731473568826914">
        <ele>67.909999999999997</ele>
        <time>2013-01-26T07:30:38Z</time>
      </trkpt>
      <trkpt lat="12.936815936118364" lon="99.731459571048617">
        <ele>68.390000000000001</ele>
        <time>2013-01-26T07:30:52Z</time>
      </trkpt>
      <trkpt lat="12.936385944485664" lon="99.731453200802207">
        <ele>65.989999999999995</ele>
        <time>2013-01-26T07:30:59Z</time>
      </trkpt>
      <trkpt lat="12.936224760487676" lon="99.731642967090011">
        <ele>64.069999999999993</ele>
        <time>2013-01-26T07:31:05Z</time>
      </trkpt>
      <trkpt lat="12.936131553724408" lon="99.732167758047581">
        <ele>66.950000000000003</ele>
        <time>2013-01-26T07:31:17Z</time>
      </trkpt>
      <trkpt lat="12.936042957007885" lon="99.732412928715348">
        <ele>66.469999999999999</ele>
        <time>2013-01-26T07:31:23Z</time>
      </trkpt>
      <trkpt lat="12.935879342257977" lon="99.732523402199149">
        <ele>66.469999999999999</ele>
        <time>2013-01-26T07:31:29Z</time>
      </trkpt>
      <trkpt lat="12.935331920161843" lon="99.73236414603889">
        <ele>65.510000000000005</ele>
        <time>2013-01-26T07:31:38Z</time>
      </trkpt>
      <trkpt lat="12.934831688180566" lon="99.732102127745748">
        <ele>61.18</ele>
        <time>2013-01-26T07:31:45Z</time>
      </trkpt>
      <trkpt lat="12.934452826157212" lon="99.731553364545107">
        <ele>58.299999999999997</ele>
        <time>2013-01-26T07:31:57Z</time>
      </trkpt>
      <trkpt lat="12.934102211147547" lon="99.731261255219579">
        <ele>58.780000000000001</ele>
        <time>2013-01-26T07:32:13Z</time>
      </trkpt>
      <trkpt lat="12.934787096455693" lon="99.731878079473972">
        <ele>59.259999999999998</ele>
        <time>2013-01-26T07:32:54Z</time>
      </trkpt>
      <trkpt lat="12.934792125597596" lon="99.731996012851596">
        <ele>60.219999999999999</ele>
        <time>2013-01-26T07:33:03Z</time>
      </trkpt>
      <trkpt lat="12.934807715937495" lon="99.732052758336067">
        <ele>60.219999999999999</ele>
        <time>2013-01-26T07:33:06Z</time>
      </trkpt>
      <trkpt lat="12.935863416641951" lon="99.732532203197479">
        <ele>66.469999999999999</ele>
        <time>2013-01-26T07:34:16Z</time>
      </trkpt>
      <trkpt lat="12.935870876535773" lon="99.732670336961746">
        <ele>66.950000000000003</ele>
        <time>2013-01-26T07:34:21Z</time>
      </trkpt>
      <trkpt lat="12.935298811644316" lon="99.733323454856873">
        <ele>66.469999999999999</ele>
        <time>2013-01-26T07:34:40Z</time>
      </trkpt>
      <trkpt lat="12.93435744009912" lon="99.733497463166714">
        <ele>65.510000000000005</ele>
        <time>2013-01-26T07:34:58Z</time>
      </trkpt>
      <trkpt lat="12.932581230998039" lon="99.733824776485562">
        <ele>59.259999999999998</ele>
        <time>2013-01-26T07:35:24Z</time>
      </trkpt>
      <trkpt lat="12.928210739046335" lon="99.73275063559413">
        <ele>55.890000000000001</ele>
        <time>2013-01-26T07:36:35Z</time>
      </trkpt>
      <trkpt lat="12.927446477115154" lon="99.732792964205146">
        <ele>58.299999999999997</ele>
        <time>2013-01-26T07:36:52Z</time>
      </trkpt>
      <trkpt lat="12.926880028098822" lon="99.731725109741092">
        <ele>59.259999999999998</ele>
        <time>2013-01-26T07:37:18Z</time>
      </trkpt>
      <trkpt lat="12.925591729581356" lon="99.731519585475326">
        <ele>62.619999999999997</ele>
        <time>2013-01-26T07:37:48Z</time>
      </trkpt>
      <trkpt lat="12.924461094662547" lon="99.731361754238605">
        <ele>64.549999999999997</ele>
        <time>2013-01-26T07:38:14Z</time>
      </trkpt>
      <trkpt lat="12.918284554034472" lon="99.730707546696067">
        <ele>61.18</ele>
        <time>2013-01-26T07:40:12Z</time>
      </trkpt>
      <trkpt lat="12.918197382241488" lon="99.730071276426315">
        <ele>61.659999999999997</ele>
        <time>2013-01-26T07:40:29Z</time>
      </trkpt>
      <trkpt lat="12.918840190395713" lon="99.729971280321479">
        <ele>61.659999999999997</ele>
        <time>2013-01-26T07:40:48Z</time>
      </trkpt>
      <trkpt lat="12.919036578387022" lon="99.729657210409641">
        <ele>62.619999999999997</ele>
        <time>2013-01-26T07:40:59Z</time>
      </trkpt>
      <trkpt lat="12.919190805405378" lon="99.728448204696178">
        <ele>66.469999999999999</ele>
        <time>2013-01-26T07:41:38Z</time>
      </trkpt>
      <trkpt lat="12.918456215411425" lon="99.728085184469819">
        <ele>68.390000000000001</ele>
        <time>2013-01-26T07:42:04Z</time>
      </trkpt>
      <trkpt lat="12.916677994653583" lon="99.727472886443138">
        <ele>66.950000000000003</ele>
        <time>2013-01-26T07:44:17Z</time>
      </trkpt>
      <trkpt lat="12.915966706350446" lon="99.726440738886595">
        <ele>70.790000000000006</ele>
        <time>2013-01-26T07:44:53Z</time>
      </trkpt>
      <trkpt lat="12.91583988815546" lon="99.725623000413179">
        <ele>74.159999999999997</ele>
        <time>2013-01-26T07:45:19Z</time>
      </trkpt>
      <trkpt lat="12.913934513926506" lon="99.724781205877662">
        <ele>72.239999999999995</ele>
        <time>2013-01-26T07:46:00Z</time>
      </trkpt>
      <trkpt lat="12.911194218322635" lon="99.723019665107131">
        <ele>69.829999999999998</ele>
        <time>2013-01-26T07:46:46Z</time>
      </trkpt>
      <trkpt lat="12.910131979733706" lon="99.722414743155241">
        <ele>65.989999999999995</ele>
        <time>2013-01-26T07:47:03Z</time>
      </trkpt>
      <trkpt lat="12.910055452957749" lon="99.720875909551978">
        <ele>69.829999999999998</ele>
        <time>2013-01-26T07:47:38Z</time>
      </trkpt>
      <trkpt lat="12.909854035824537" lon="99.719460541382432">
        <ele>71.760000000000005</ele>
        <time>2013-01-26T07:48:06Z</time>
      </trkpt>
      <trkpt lat="12.909552119672298" lon="99.71742482855916">
        <ele>66.950000000000003</ele>
        <time>2013-01-26T07:48:34Z</time>
      </trkpt>
      <trkpt lat="12.909614313393831" lon="99.716901881620288">
        <ele>64.069999999999993</ele>
        <time>2013-01-26T07:48:41Z</time>
      </trkpt>
      <trkpt lat="12.909397725015879" lon="99.716491922736168">
        <ele>64.549999999999997</ele>
        <time>2013-01-26T07:48:50Z</time>
      </trkpt>
      <trkpt lat="12.909343326464295" lon="99.71568332053721">
        <ele>65.989999999999995</ele>
        <time>2013-01-26T07:49:04Z</time>
      </trkpt>
      <trkpt lat="12.909876834601164" lon="99.71523379907012">
        <ele>65.989999999999995</ele>
        <time>2013-01-26T07:49:15Z</time>
      </trkpt>
      <trkpt lat="12.909919498488307" lon="99.714910006150603">
        <ele>65.510000000000005</ele>
        <time>2013-01-26T07:49:20Z</time>
      </trkpt>
      <trkpt lat="12.910095350816846" lon="99.714761981740594">
        <ele>65.989999999999995</ele>
        <time>2013-01-26T07:49:24Z</time>
      </trkpt>
      <trkpt lat="12.911173095926642" lon="99.714517062529922">
        <ele>65.989999999999995</ele>
        <time>2013-01-26T07:49:47Z</time>
      </trkpt>
      <trkpt lat="12.91327360086143" lon="99.713202696293592">
        <ele>72.239999999999995</ele>
        <time>2013-01-26T07:50:39Z</time>
      </trkpt>
      <trkpt lat="12.915384583175182" lon="99.711953960359097">
        <ele>75.599999999999994</ele>
        <time>2013-01-26T07:51:25Z</time>
      </trkpt>
      <trkpt lat="12.915995204821229" lon="99.711601501330733">
        <ele>76.079999999999998</ele>
        <time>2013-01-26T07:51:39Z</time>
      </trkpt>
      <trkpt lat="12.915116446092725" lon="99.709193212911487">
        <ele>73.200000000000003</ele>
        <time>2013-01-26T07:52:19Z</time>
      </trkpt>
      <trkpt lat="12.913802918046713" lon="99.707320109009743">
        <ele>75.599999999999994</ele>
        <time>2013-01-26T07:53:02Z</time>
      </trkpt>
      <trkpt lat="12.912993310019374" lon="99.705804493278265">
        <ele>77.040000000000006</ele>
        <time>2013-01-26T07:53:34Z</time>
      </trkpt>
      <trkpt lat="12.912715869024396" lon="99.705283557996154">
        <ele>77.040000000000006</ele>
        <time>2013-01-26T07:53:46Z</time>
      </trkpt>
      <trkpt lat="12.911825040355325" lon="99.70549494959414">
        <ele>71.760000000000005</ele>
        <time>2013-01-26T07:54:02Z</time>
      </trkpt>
      <trkpt lat="12.906894804909825" lon="99.707478526979685">
        <ele>86.659999999999997</ele>
        <time>2013-01-26T07:56:32Z</time>
      </trkpt>
      <trkpt lat="12.906614262610674" lon="99.705402664840221">
        <ele>82.329999999999998</ele>
        <time>2013-01-26T07:57:14Z</time>
      </trkpt>
      <trkpt lat="12.90670151822269" lon="99.70495356246829">
        <ele>81.849999999999994</ele>
        <time>2013-01-26T07:57:22Z</time>
      </trkpt>
      <trkpt lat="12.906700177118182" lon="99.704002132639289">
        <ele>78.969999999999999</ele>
        <time>2013-01-26T07:57:36Z</time>
      </trkpt>
      <trkpt lat="12.906461041420698" lon="99.70377691090107">
        <ele>78.969999999999999</ele>
        <time>2013-01-26T07:57:42Z</time>
      </trkpt>
      <trkpt lat="12.905336860567331" lon="99.703711615875363">
        <ele>84.730000000000004</ele>
        <time>2013-01-26T07:58:16Z</time>
      </trkpt>
      <trkpt lat="12.904964033514261" lon="99.703640285879374">
        <ele>85.689999999999998</ele>
        <time>2013-01-26T07:58:26Z</time>
      </trkpt>
      <trkpt lat="12.904563127085567" lon="99.702526582404971">
        <ele>81.370000000000005</ele>
        <time>2013-01-26T07:58:47Z</time>
      </trkpt>
      <trkpt lat="12.903534835204482" lon="99.702550135552883">
        <ele>79.450000000000003</ele>
        <time>2013-01-26T07:59:07Z</time>
      </trkpt>
      <trkpt lat="12.901832805946469" lon="99.702851045876741">
        <ele>87.140000000000001</ele>
        <time>2013-01-26T07:59:57Z</time>
      </trkpt>
      <trkpt lat="12.895764894783497" lon="99.704105397686362">
        <ele>97.230000000000004</ele>
        <time>2013-01-26T08:02:33Z</time>
      </trkpt>
      <trkpt lat="12.892127986997366" lon="99.704905115067959">
        <ele>90.019999999999996</ele>
        <time>2013-01-26T08:03:42Z</time>
      </trkpt>
      <trkpt lat="12.892030254006386" lon="99.705046769231558">
        <ele>89.060000000000002</ele>
        <time>2013-01-26T08:03:47Z</time>
      </trkpt>
      <trkpt lat="12.892238376662135" lon="99.705824106931686">
        <ele>87.140000000000001</ele>
        <time>2013-01-26T08:04:10Z</time>
      </trkpt>
      <trkpt lat="12.890527965500951" lon="99.70458073541522">
        <ele>85.689999999999998</ele>
        <time>2013-01-26T08:05:01Z</time>
      </trkpt>
      <trkpt lat="12.889914661645889" lon="99.704319722950459">
        <ele>86.659999999999997</ele>
        <time>2013-01-26T08:05:17Z</time>
      </trkpt>
      <trkpt lat="12.889550300315022" lon="99.704718198627234">
        <ele>83.769999999999996</ele>
        <time>2013-01-26T08:05:28Z</time>
      </trkpt>
      <trkpt lat="12.889436641708016" lon="99.704538742080331">
        <ele>83.290000000000006</ele>
        <time>2013-01-26T08:05:34Z</time>
      </trkpt>
      <trkpt lat="12.889579050242901" lon="99.704106906428933">
        <ele>86.659999999999997</ele>
        <time>2013-01-26T08:05:46Z</time>
      </trkpt>
      <trkpt lat="12.890391256660223" lon="99.703345829620957">
        <ele>85.689999999999998</ele>
        <time>2013-01-26T08:06:07Z</time>
      </trkpt>
      <trkpt lat="12.89048689417541" lon="99.702896308153868">
        <ele>86.180000000000007</ele>
        <time>2013-01-26T08:06:15Z</time>
      </trkpt>
      <trkpt lat="12.890253206714988" lon="99.701355881989002">
        <ele>78.969999999999999</ele>
        <time>2013-01-26T08:06:36Z</time>
      </trkpt>
      <trkpt lat="12.890650425106287" lon="99.700071271508932">
        <ele>78.480000000000004</ele>
        <time>2013-01-26T08:06:56Z</time>
      </trkpt>
      <trkpt lat="12.890662327408791" lon="99.700042940676212">
        <ele>78</ele>
        <time>2013-01-26T08:06:57Z</time>
      </trkpt>
      <trkpt lat="12.89183889515698" lon="99.698722120374441">
        <ele>79.930000000000007</ele>
        <time>2013-01-26T08:07:40Z</time>
      </trkpt>
      <trkpt lat="12.892598211765289" lon="99.698260864242911">
        <ele>80.409999999999997</ele>
        <time>2013-01-26T08:07:52Z</time>
      </trkpt>
      <trkpt lat="12.894563684239984" lon="99.697980657219887">
        <ele>84.25</ele>
        <time>2013-01-26T08:08:44Z</time>
      </trkpt>
      <trkpt lat="12.893570177257061" lon="99.697947381064296">
        <ele>81.849999999999994</ele>
        <time>2013-01-26T08:09:14Z</time>
      </trkpt>
      <trkpt lat="12.892651772126555" lon="99.69325284473598">
        <ele>86.180000000000007</ele>
        <time>2013-01-26T08:10:44Z</time>
      </trkpt>
      <trkpt lat="12.893157117068768" lon="99.69311848282814">
        <ele>90.019999999999996</ele>
        <time>2013-01-26T08:11:04Z</time>
      </trkpt>
      <trkpt lat="12.894091866910458" lon="99.692821931093931">
        <ele>88.099999999999994</ele>
        <time>2013-01-26T08:11:24Z</time>
      </trkpt>
      <trkpt lat="12.895628772675991" lon="99.692255314439535">
        <ele>90.980000000000004</ele>
        <time>2013-01-26T08:11:53Z</time>
      </trkpt>
      <trkpt lat="12.896122466772795" lon="99.692033529281616">
        <ele>92.900000000000006</ele>
        <time>2013-01-26T08:12:05Z</time>
      </trkpt>
      <trkpt lat="12.896740548312664" lon="99.691556598991156">
        <ele>92.900000000000006</ele>
        <time>2013-01-26T08:12:21Z</time>
      </trkpt>
      <trkpt lat="12.896230593323708" lon="99.690008880570531">
        <ele>100.109999999999999</ele>
        <time>2013-01-26T08:13:03Z</time>
      </trkpt>
      <trkpt lat="12.895728601142764" lon="99.689359702169895">
        <ele>103</ele>
        <time>2013-01-26T08:13:27Z</time>
      </trkpt>
      <trkpt lat="12.896440057083964" lon="99.687012350186706">
        <ele>118.859999999999999</ele>
        <time>2013-01-26T08:15:00Z</time>
      </trkpt>
      <trkpt lat="12.897001141682267" lon="99.68543529510498">
        <ele>115.010000000000005</ele>
        <time>2013-01-26T08:15:33Z</time>
      </trkpt>
      <trkpt lat="12.898452803492546" lon="99.682981660589576">
        <ele>106.840000000000003</ele>
        <time>2013-01-26T08:16:06Z</time>
      </trkpt>
      <trkpt lat="12.898808782920241" lon="99.682695250958204">
        <ele>104.920000000000002</ele>
        <time>2013-01-26T08:16:12Z</time>
      </trkpt>
      <trkpt lat="12.899388810619712" lon="99.68291787430644">
        <ele>103</ele>
        <time>2013-01-26T08:16:21Z</time>
      </trkpt>
      <trkpt lat="12.900356249883771" lon="99.682112038135529">
        <ele>101.079999999999998</ele>
        <time>2013-01-26T08:16:36Z</time>
      </trkpt>
      <trkpt lat="12.900264887139201" lon="99.68154089525342">
        <ele>103.480000000000004</ele>
        <time>2013-01-26T08:16:47Z</time>
      </trkpt>
      <trkpt lat="12.900299755856395" lon="99.681327491998672">
        <ele>103.480000000000004</ele>
        <time>2013-01-26T08:16:51Z</time>
      </trkpt>
      <trkpt lat="12.900120969861746" lon="99.680738160386682">
        <ele>103</ele>
        <time>2013-01-26T08:17:02Z</time>
      </trkpt>
      <trkpt lat="12.899960540235043" lon="99.680698597803712">
        <ele>104.439999999999998</ele>
        <time>2013-01-26T08:17:06Z</time>
      </trkpt>
      <trkpt lat="12.899912595748901" lon="99.680643612518907">
        <ele>103</ele>
        <time>2013-01-26T08:18:50Z</time>
      </trkpt>
    </trkseg>
  </trk>

  <trk>
    <name>Saturday (Medium)</name>
    <extensions>
      <gpxx:TrackExtension>
        <gpxx:DisplayColor>DarkRed</gpxx:DisplayColor>
      </gpxx:TrackExtension>
    </extensions>
    <trkseg>
      <trkpt lat="12.900066906586289" lon="99.68057194724679">
        <ele>109.7276611328125</ele>
        <time>2013-01-26T06:04:58Z</time>
      </trkpt>
      <trkpt lat="12.90035180747509" lon="99.681395636871457">
        <ele>104.9210205078125</ele>
        <time>2013-01-26T06:05:31Z</time>
      </trkpt>
      <trkpt lat="12.900257678702474" lon="99.681664779782295">
        <ele>105.4017333984375</ele>
        <time>2013-01-26T06:05:41Z</time>
      </trkpt>
      <trkpt lat="12.900795210152864" lon="99.682398615404963">
        <ele>105.4017333984375</ele>
        <time>2013-01-26T06:05:57Z</time>
      </trkpt>
      <trkpt lat="12.900844495743513" lon="99.682674882933497">
        <ele>107.3243408203125</ele>
        <time>2013-01-26T06:06:02Z</time>
      </trkpt>
      <trkpt lat="12.901161415502429" lon="99.683296317234635">
        <ele>106.8436279296875</ele>
        <time>2013-01-26T06:06:17Z</time>
      </trkpt>
      <trkpt lat="12.9037946742028" lon="99.682940002530813">
        <ele>112.1309814453125</ele>
        <time>2013-01-26T06:07:17Z</time>
      </trkpt>
      <trkpt lat="12.90475046262145" lon="99.683031113818288">
        <ele>109.2469482421875</ele>
        <time>2013-01-26T06:07:37Z</time>
      </trkpt>
      <trkpt lat="12.905603153631091" lon="99.68352279625833">
        <ele>107.3243408203125</ele>
        <time>2013-01-26T06:07:57Z</time>
      </trkpt>
      <trkpt lat="12.906400104984641" lon="99.683648273348808">
        <ele>105.8824462890625</ele>
        <time>2013-01-26T06:08:14Z</time>
      </trkpt>
      <trkpt lat="12.907102173194289" lon="99.683359935879707">
        <ele>107.8050537109375</ele>
        <time>2013-01-26T06:08:31Z</time>
      </trkpt>
      <trkpt lat="12.90760550647974" lon="99.682804886251688">
        <ele>106.363037109375</ele>
        <time>2013-01-26T06:08:48Z</time>
      </trkpt>
      <trkpt lat="12.907857466489077" lon="99.681981950998306">
        <ele>112.1309814453125</ele>
        <time>2013-01-26T06:09:20Z</time>
      </trkpt>
      <trkpt lat="12.908539418131113" lon="99.681454477831721">
        <ele>117.8988037109375</ele>
        <time>2013-01-26T06:09:49Z</time>
      </trkpt>
      <trkpt lat="12.908833622932434" lon="99.681350626051426">
        <ele>118.860107421875</ele>
        <time>2013-01-26T06:09:57Z</time>
      </trkpt>
      <trkpt lat="12.909918827936053" lon="99.683400588110089">
        <ele>105.4017333984375</ele>
        <time>2013-01-26T06:10:37Z</time>
      </trkpt>
      <trkpt lat="12.910465076565742" lon="99.683091547340155">
        <ele>104.4404296875</ele>
        <time>2013-01-26T06:10:57Z</time>
      </trkpt>
      <trkpt lat="12.910813177004457" lon="99.682556111365557">
        <ele>103.959716796875</ele>
        <time>2013-01-26T06:11:14Z</time>
      </trkpt>
      <trkpt lat="12.911049546673894" lon="99.681922858580947">
        <ele>101.07568359375</ele>
        <time>2013-01-26T06:11:32Z</time>
      </trkpt>
      <trkpt lat="12.911866530776024" lon="99.68173636123538">
        <ele>101.07568359375</ele>
        <time>2013-01-26T06:11:54Z</time>
      </trkpt>
      <trkpt lat="12.912529204040766" lon="99.681558664888144">
        <ele>96.7498779296875</ele>
        <time>2013-01-26T06:12:10Z</time>
      </trkpt>
      <trkpt lat="12.913614828139544" lon="99.681209390982985">
        <ele>95.7884521484375</ele>
        <time>2013-01-26T06:12:44Z</time>
      </trkpt>
      <trkpt lat="12.914462490007281" lon="99.681493202224374">
        <ele>99.153076171875</ele>
        <time>2013-01-26T06:13:15Z</time>
      </trkpt>
      <trkpt lat="12.914941012859344" lon="99.681604513898492">
        <ele>98.19189453125</ele>
        <time>2013-01-26T06:13:40Z</time>
      </trkpt>
      <trkpt lat="12.915982212871313" lon="99.681531507521868">
        <ele>92.4239501953125</ele>
        <time>2013-01-26T06:14:14Z</time>
      </trkpt>
      <trkpt lat="12.916156137362123" lon="99.681327827274799">
        <ele>89.5399169921875</ele>
        <time>2013-01-26T06:14:23Z</time>
      </trkpt>
      <trkpt lat="12.916294857859612" lon="99.680201131850481">
        <ele>87.6171875</ele>
        <time>2013-01-26T06:14:48Z</time>
      </trkpt>
      <trkpt lat="12.916458053514361" lon="99.679269148036838">
        <ele>84.252685546875</ele>
        <time>2013-01-26T06:15:07Z</time>
      </trkpt>
      <trkpt lat="12.917122822254896" lon="99.679146520793438">
        <ele>91.4625244140625</ele>
        <time>2013-01-26T06:15:26Z</time>
      </trkpt>
      <trkpt lat="12.917916253209114" lon="99.678834797814488">
        <ele>92.4239501953125</ele>
        <time>2013-01-26T06:15:58Z</time>
      </trkpt>
      <trkpt lat="12.918551517650485" lon="99.678767491132021">
        <ele>95.7884521484375</ele>
        <time>2013-01-26T06:16:17Z</time>
      </trkpt>
      <trkpt lat="12.919116206467152" lon="99.678638493642211">
        <ele>94.3465576171875</ele>
        <time>2013-01-26T06:16:34Z</time>
      </trkpt>
      <trkpt lat="12.920733243227005" lon="99.678058549761772">
        <ele>91.9432373046875</ele>
        <time>2013-01-26T06:17:17Z</time>
      </trkpt>
      <trkpt lat="12.921322155743837" lon="99.677503416314721">
        <ele>93.8658447265625</ele>
        <time>2013-01-26T06:17:37Z</time>
      </trkpt>
      <trkpt lat="12.921775951981544" lon="99.676528181880713">
        <ele>104.4404296875</ele>
        <time>2013-01-26T06:18:26Z</time>
      </trkpt>
      <trkpt lat="12.921990025788546" lon="99.675705917179585">
        <ele>105.4017333984375</ele>
        <time>2013-01-26T06:19:01Z</time>
      </trkpt>
      <trkpt lat="12.922392776235938" lon="99.67486915178597">
        <ele>109.2469482421875</ele>
        <time>2013-01-26T06:19:42Z</time>
      </trkpt>
      <trkpt lat="12.925172299146652" lon="99.671960631385446">
        <ele>120.3021240234375</ele>
        <time>2013-01-26T06:22:30Z</time>
      </trkpt>
      <trkpt lat="12.925215130671859" lon="99.67165351845324">
        <ele>122.2247314453125</ele>
        <time>2013-01-26T06:22:45Z</time>
      </trkpt>
      <trkpt lat="12.925361730158329" lon="99.671456292271614">
        <ele>121.744140625</ele>
        <time>2013-01-26T06:22:56Z</time>
      </trkpt>
      <trkpt lat="12.926634270697832" lon="99.671769943088293">
        <ele>110.6888427734375</ele>
        <time>2013-01-26T06:23:42Z</time>
      </trkpt>
      <trkpt lat="12.927300967276096" lon="99.671570537611842">
        <ele>107.8050537109375</ele>
        <time>2013-01-26T06:23:57Z</time>
      </trkpt>
      <trkpt lat="12.928736116737127" lon="99.67162954621017">
        <ele>117.418212890625</ele>
        <time>2013-01-26T06:24:59Z</time>
      </trkpt>
      <trkpt lat="12.928928481414914" lon="99.671575399115682">
        <ele>118.37939453125</ele>
        <time>2013-01-26T06:25:13Z</time>
      </trkpt>
      <trkpt lat="12.929482273757458" lon="99.670999478548765">
        <ele>120.7828369140625</ele>
        <time>2013-01-26T06:25:45Z</time>
      </trkpt>
      <trkpt lat="12.930123237892985" lon="99.671532399952412">
        <ele>123.666748046875</ele>
        <time>2013-01-26T06:26:14Z</time>
      </trkpt>
      <trkpt lat="12.929404657334089" lon="99.671043902635574">
        <ele>122.7054443359375</ele>
        <time>2013-01-26T06:26:49Z</time>
      </trkpt>
      <trkpt lat="12.928685406222939" lon="99.671880584210157">
        <ele>120.3021240234375</ele>
        <time>2013-01-26T06:27:19Z</time>
      </trkpt>
      <trkpt lat="12.928252397105098" lon="99.672342427074909">
        <ele>117.8988037109375</ele>
        <time>2013-01-26T06:27:34Z</time>
      </trkpt>
      <trkpt lat="12.927991719916463" lon="99.672729671001434">
        <ele>115.9761962890625</ele>
        <time>2013-01-26T06:27:48Z</time>
      </trkpt>
      <trkpt lat="12.929465090855956" lon="99.670992353931069">
        <ele>122.7054443359375</ele>
        <time>2013-01-26T06:31:12Z</time>
      </trkpt>
      <trkpt lat="12.930572172626853" lon="99.671970019116998">
        <ele>125.1087646484375</ele>
        <time>2013-01-26T06:32:25Z</time>
      </trkpt>
      <trkpt lat="12.931366022676229" lon="99.672814831137657">
        <ele>119.3408203125</ele>
        <time>2013-01-26T06:32:51Z</time>
      </trkpt>
      <trkpt lat="12.93182048946619" lon="99.673304166644812">
        <ele>113.572998046875</ele>
        <time>2013-01-26T06:33:02Z</time>
      </trkpt>
      <trkpt lat="12.932055853307247" lon="99.673405336216092">
        <ele>109.7276611328125</ele>
        <time>2013-01-26T06:33:14Z</time>
      </trkpt>
      <trkpt lat="12.932087536901236" lon="99.674442177638412">
        <ele>107.8050537109375</ele>
        <time>2013-01-26T06:33:36Z</time>
      </trkpt>
      <trkpt lat="12.932610902935266" lon="99.674634374678135">
        <ele>106.363037109375</ele>
        <time>2013-01-26T06:33:51Z</time>
      </trkpt>
      <trkpt lat="12.933091437444091" lon="99.676255183294415">
        <ele>102.037109375</ele>
        <time>2013-01-26T06:34:23Z</time>
      </trkpt>
      <trkpt lat="12.933273073285818" lon="99.677636101841927">
        <ele>99.6337890625</ele>
        <time>2013-01-26T06:34:50Z</time>
      </trkpt>
      <trkpt lat="12.932989681139588" lon="99.677899293601513">
        <ele>96.7498779296875</ele>
        <time>2013-01-26T06:35:01Z</time>
      </trkpt>
      <trkpt lat="12.931087156757712" lon="99.67841905541718">
        <ele>97.23046875</ele>
        <time>2013-01-26T06:36:06Z</time>
      </trkpt>
      <trkpt lat="12.931065447628498" lon="99.679564107209444">
        <ele>101.07568359375</ele>
        <time>2013-01-26T06:36:44Z</time>
      </trkpt>
      <trkpt lat="12.931114314123988" lon="99.680510843172669">
        <ele>101.07568359375</ele>
        <time>2013-01-26T06:37:14Z</time>
      </trkpt>
      <trkpt lat="12.931378092616796" lon="99.68061494641006">
        <ele>99.153076171875</ele>
        <time>2013-01-26T06:37:24Z</time>
      </trkpt>
      <trkpt lat="12.931326124817133" lon="99.681091122329235">
        <ele>98.19189453125</ele>
        <time>2013-01-26T06:37:40Z</time>
      </trkpt>
      <trkpt lat="12.931668274104595" lon="99.681713227182627">
        <ele>97.711181640625</ele>
        <time>2013-01-26T06:37:59Z</time>
      </trkpt>
      <trkpt lat="12.931766090914607" lon="99.681912884116173">
        <ele>95.3077392578125</ele>
        <time>2013-01-26T06:38:04Z</time>
      </trkpt>
      <trkpt lat="12.93243270367384" lon="99.682469023391604">
        <ele>92.904541015625</ele>
        <time>2013-01-26T06:38:23Z</time>
      </trkpt>
      <trkpt lat="12.93327265419066" lon="99.683862514793873">
        <ele>87.6171875</ele>
        <time>2013-01-26T06:39:03Z</time>
      </trkpt>
      <trkpt lat="12.933696778491139" lon="99.684274317696691">
        <ele>87.6171875</ele>
        <time>2013-01-26T06:39:20Z</time>
      </trkpt>
      <trkpt lat="12.934278398752213" lon="99.684614203870296">
        <ele>91.4625244140625</ele>
        <time>2013-01-26T06:39:36Z</time>
      </trkpt>
      <trkpt lat="12.934800758957863" lon="99.685151567682624">
        <ele>89.059326171875</ele>
        <time>2013-01-26T06:39:59Z</time>
      </trkpt>
      <trkpt lat="12.937429323792458" lon="99.683488681912422">
        <ele>97.711181640625</ele>
        <time>2013-01-26T06:41:11Z</time>
      </trkpt>
      <trkpt lat="12.938748802989721" lon="99.683027509599924">
        <ele>98.6724853515625</ele>
        <time>2013-01-26T06:41:41Z</time>
      </trkpt>
      <trkpt lat="12.939593195915222" lon="99.684166274964809">
        <ele>96.7498779296875</ele>
        <time>2013-01-26T06:42:10Z</time>
      </trkpt>
      <trkpt lat="12.940941676497459" lon="99.685529256239533">
        <ele>92.4239501953125</ele>
        <time>2013-01-26T06:42:45Z</time>
      </trkpt>
      <trkpt lat="12.94170786626637" lon="99.685468571260571">
        <ele>95.3077392578125</ele>
        <time>2013-01-26T06:43:09Z</time>
      </trkpt>
      <trkpt lat="12.942119501531124" lon="99.685633778572083">
        <ele>97.711181640625</ele>
        <time>2013-01-26T06:43:24Z</time>
      </trkpt>
      <trkpt lat="12.94331886805594" lon="99.686118671670556">
        <ele>98.19189453125</ele>
        <time>2013-01-26T06:43:59Z</time>
      </trkpt>
      <trkpt lat="12.943963604047894" lon="99.685410903766751">
        <ele>98.6724853515625</ele>
        <time>2013-01-26T06:44:24Z</time>
      </trkpt>
      <trkpt lat="12.944426033645868" lon="99.685180317610502">
        <ele>101.07568359375</ele>
        <time>2013-01-26T06:44:40Z</time>
      </trkpt>
      <trkpt lat="12.947409152984619" lon="99.684557290747762">
        <ele>123.666748046875</ele>
        <time>2013-01-26T06:47:17Z</time>
      </trkpt>
      <trkpt lat="12.947667231783271" lon="99.684489229694009">
        <ele>125.58935546875</ele>
        <time>2013-01-26T06:47:37Z</time>
      </trkpt>
      <trkpt lat="12.948535596951842" lon="99.684000480920076">
        <ele>124.6280517578125</ele>
        <time>2013-01-26T06:48:10Z</time>
      </trkpt>
      <trkpt lat="12.950947573408484" lon="99.68471696600318">
        <ele>128.9541015625</ele>
        <time>2013-01-26T06:49:38Z</time>
      </trkpt>
      <trkpt lat="12.9518982488662" lon="99.685204289853573">
        <ele>134.2412109375</ele>
        <time>2013-01-26T06:50:12Z</time>
      </trkpt>
      <trkpt lat="12.951996233314276" lon="99.685283917933702">
        <ele>133.760498046875</ele>
        <time>2013-01-26T06:50:17Z</time>
      </trkpt>
      <trkpt lat="12.952308291569352" lon="99.685082165524364">
        <ele>131.837890625</ele>
        <time>2013-01-26T06:50:33Z</time>
      </trkpt>
      <trkpt lat="12.952379873022437" lon="99.684830289334059">
        <ele>132.79931640625</ele>
        <time>2013-01-26T06:50:56Z</time>
      </trkpt>
      <trkpt lat="12.952770218253136" lon="99.685474103316665">
        <ele>131.3572998046875</ele>
        <time>2013-01-26T06:51:24Z</time>
      </trkpt>
      <trkpt lat="12.953226026147604" lon="99.685596143826842">
        <ele>132.318603515625</ele>
        <time>2013-01-26T06:51:43Z</time>
      </trkpt>
      <trkpt lat="12.95430913567543" lon="99.685529423877597">
        <ele>129.4346923828125</ele>
        <time>2013-01-26T06:52:18Z</time>
      </trkpt>
      <trkpt lat="12.955626770853996" lon="99.685045620426536">
        <ele>138.0865478515625</ele>
        <time>2013-01-26T06:53:14Z</time>
      </trkpt>
      <trkpt lat="12.956233201548457" lon="99.684209525585175">
        <ele>136.1639404296875</ele>
        <time>2013-01-26T06:53:48Z</time>
      </trkpt>
      <trkpt lat="12.957276413217187" lon="99.683865867555141">
        <ele>134.2412109375</ele>
        <time>2013-01-26T06:54:24Z</time>
      </trkpt>
      <trkpt lat="12.957920059561729" lon="99.683842146769166">
        <ele>133.760498046875</ele>
        <time>2013-01-26T06:54:42Z</time>
      </trkpt>
      <trkpt lat="12.959313467144966" lon="99.685244103893638">
        <ele>127.9925537109375</ele>
        <time>2013-01-26T06:55:15Z</time>
      </trkpt>
      <trkpt lat="12.95963617041707" lon="99.685688763856888">
        <ele>126.5506591796875</ele>
        <time>2013-01-26T06:55:40Z</time>
      </trkpt>
      <trkpt lat="12.95981646515429" lon="99.686601385474205">
        <ele>123.666748046875</ele>
        <time>2013-01-26T06:55:59Z</time>
      </trkpt>
      <trkpt lat="12.960145454853773" lon="99.687909381464124">
        <ele>115.49560546875</ele>
        <time>2013-01-26T06:56:28Z</time>
      </trkpt>
      <trkpt lat="12.961926944553852" lon="99.68727202154696">
        <ele>108.28564453125</ele>
        <time>2013-01-26T07:09:54Z</time>
      </trkpt>
      <trkpt lat="12.962050661444664" lon="99.687398253008723">
        <ele>107.8050537109375</ele>
        <time>2013-01-26T07:10:00Z</time>
      </trkpt>
      <trkpt lat="12.961858715862036" lon="99.687945675104856">
        <ele>108.28564453125</ele>
        <time>2013-01-26T07:10:13Z</time>
      </trkpt>
      <trkpt lat="12.961304085329175" lon="99.688729802146554">
        <ele>107.3243408203125</ele>
        <time>2013-01-26T07:10:36Z</time>
      </trkpt>
      <trkpt lat="12.961354460567236" lon="99.689450897276402">
        <ele>107.3243408203125</ele>
        <time>2013-01-26T07:10:51Z</time>
      </trkpt>
      <trkpt lat="12.961739944294095" lon="99.690634673461318">
        <ele>107.3243408203125</ele>
        <time>2013-01-26T07:11:15Z</time>
      </trkpt>
      <trkpt lat="12.962174629792571" lon="99.691050667315722">
        <ele>105.8824462890625</ele>
        <time>2013-01-26T07:11:30Z</time>
      </trkpt>
      <trkpt lat="12.962401611730456" lon="99.69225556589663">
        <ele>106.8436279296875</ele>
        <time>2013-01-26T07:12:12Z</time>
      </trkpt>
      <trkpt lat="12.962559023872018" lon="99.692649347707629">
        <ele>105.4017333984375</ele>
        <time>2013-01-26T07:12:24Z</time>
      </trkpt>
      <trkpt lat="12.962441509589553" lon="99.693959606811404">
        <ele>106.363037109375</ele>
        <time>2013-01-26T07:13:01Z</time>
      </trkpt>
      <trkpt lat="12.962472103536129" lon="99.694524463266134">
        <ele>105.4017333984375</ele>
        <time>2013-01-26T07:13:15Z</time>
      </trkpt>
      <trkpt lat="12.962114699184895" lon="99.695656690746546">
        <ele>98.19189453125</ele>
        <time>2013-01-26T07:13:42Z</time>
      </trkpt>
      <trkpt lat="12.962324498221278" lon="99.69709150493145">
        <ele>94.3465576171875</ele>
        <time>2013-01-26T07:14:11Z</time>
      </trkpt>
      <trkpt lat="12.962354840710759" lon="99.698769142851233">
        <ele>90.0206298828125</ele>
        <time>2013-01-26T07:14:50Z</time>
      </trkpt>
      <trkpt lat="12.962345788255334" lon="99.698878191411495">
        <ele>89.5399169921875</ele>
        <time>2013-01-26T07:14:53Z</time>
      </trkpt>
      <trkpt lat="12.962694223970175" lon="99.698973074555397">
        <ele>87.1365966796875</ele>
        <time>2013-01-26T07:15:05Z</time>
      </trkpt>
      <trkpt lat="12.962937634438276" lon="99.698649030178785">
        <ele>87.1365966796875</ele>
        <time>2013-01-26T07:15:19Z</time>
      </trkpt>
      <trkpt lat="12.963973972946405" lon="99.699598699808121">
        <ele>80.407470703125</ele>
        <time>2013-01-26T07:16:02Z</time>
      </trkpt>
      <trkpt lat="12.964815683662891" lon="99.699615966528654">
        <ele>79.9266357421875</ele>
        <time>2013-01-26T07:16:30Z</time>
      </trkpt>
      <trkpt lat="12.965641217306256" lon="99.700156347826123">
        <ele>84.7333984375</ele>
        <time>2013-01-26T07:17:09Z</time>
      </trkpt>
      <trkpt lat="12.965997280552983" lon="99.700054340064526">
        <ele>87.6171875</ele>
        <time>2013-01-26T07:17:28Z</time>
      </trkpt>
      <trkpt lat="12.966413693502545" lon="99.700329015031457">
        <ele>88.5787353515625</ele>
        <time>2013-01-26T07:17:46Z</time>
      </trkpt>
      <trkpt lat="12.966324845328927" lon="99.700909629464149">
        <ele>89.059326171875</ele>
        <time>2013-01-26T07:18:08Z</time>
      </trkpt>
      <trkpt lat="12.96646524220705" lon="99.701885031536222">
        <ele>88.0980224609375</ele>
        <time>2013-01-26T07:18:35Z</time>
      </trkpt>
      <trkpt lat="12.966219484806061" lon="99.702171189710498">
        <ele>84.7333984375</ele>
        <time>2013-01-26T07:18:53Z</time>
      </trkpt>
      <trkpt lat="12.966482006013393" lon="99.703143741935492">
        <ele>81.3687744140625</ele>
        <time>2013-01-26T07:19:20Z</time>
      </trkpt>
      <trkpt lat="12.967277783900499" lon="99.703769534826279">
        <ele>77.5234375</ele>
        <time>2013-01-26T07:19:53Z</time>
      </trkpt>
      <trkpt lat="12.968069789931178" lon="99.704070528969169">
        <ele>76.5621337890625</ele>
        <time>2013-01-26T07:20:23Z</time>
      </trkpt>
      <trkpt lat="12.968721482902765" lon="99.704602025449276">
        <ele>79.9266357421875</ele>
        <time>2013-01-26T07:20:51Z</time>
      </trkpt>
      <trkpt lat="12.968798177316785" lon="99.704633876681328">
        <ele>79.9266357421875</ele>
        <time>2013-01-26T07:20:54Z</time>
      </trkpt>
      <trkpt lat="12.968803960829973" lon="99.705680944025517">
        <ele>85.694580078125</ele>
        <time>2013-01-26T07:24:10Z</time>
      </trkpt>
      <trkpt lat="12.96837623231113" lon="99.706908389925957">
        <ele>76.5621337890625</ele>
        <time>2013-01-26T07:40:07Z</time>
      </trkpt>
      <trkpt lat="12.968909740447998" lon="99.707406526431441">
        <ele>71.7554931640625</ele>
        <time>2013-01-26T07:40:45Z</time>
      </trkpt>
      <trkpt lat="12.968606483191252" lon="99.708061739802361">
        <ele>73.1976318359375</ele>
        <time>2013-01-26T07:41:12Z</time>
      </trkpt>
      <trkpt lat="12.964349817484617" lon="99.709172258153558">
        <ele>66.948974609375</ele>
        <time>2013-01-26T07:42:53Z</time>
      </trkpt>
      <trkpt lat="12.962704785168171" lon="99.710487294942141">
        <ele>65.9876708984375</ele>
        <time>2013-01-26T07:43:34Z</time>
      </trkpt>
      <trkpt lat="12.962394403293729" lon="99.71106237731874">
        <ele>66.948974609375</ele>
        <time>2013-01-26T07:43:48Z</time>
      </trkpt>
      <trkpt lat="12.962199691683054" lon="99.711375441402197">
        <ele>66.46826171875</ele>
        <time>2013-01-26T07:43:58Z</time>
      </trkpt>
      <trkpt lat="12.961586220189929" lon="99.711042093113065">
        <ele>65.507080078125</ele>
        <time>2013-01-26T07:44:26Z</time>
      </trkpt>
      <trkpt lat="12.960626576095819" lon="99.710879568010569">
        <ele>61.1810302734375</ele>
        <time>2013-01-26T07:44:53Z</time>
      </trkpt>
      <trkpt lat="12.960146879777312" lon="99.710503472015262">
        <ele>62.6229248046875</ele>
        <time>2013-01-26T07:45:07Z</time>
      </trkpt>
      <trkpt lat="12.959378343075514" lon="99.710161155089736">
        <ele>61.1810302734375</ele>
        <time>2013-01-26T07:45:27Z</time>
      </trkpt>
      <trkpt lat="12.959041055291891" lon="99.708855422213674">
        <ele>62.6229248046875</ele>
        <time>2013-01-26T07:45:58Z</time>
      </trkpt>
      <trkpt lat="12.958746515214443" lon="99.708656100556254">
        <ele>62.6229248046875</ele>
        <time>2013-01-26T07:46:06Z</time>
      </trkpt>
      <trkpt lat="12.957205921411514" lon="99.708446636795998">
        <ele>65.9876708984375</ele>
        <time>2013-01-26T07:46:45Z</time>
      </trkpt>
      <trkpt lat="12.955765826627612" lon="99.708256367594004">
        <ele>65.0263671875</ele>
        <time>2013-01-26T07:47:21Z</time>
      </trkpt>
      <trkpt lat="12.954429415985942" lon="99.707942632958293">
        <ele>66.46826171875</ele>
        <time>2013-01-26T07:48:01Z</time>
      </trkpt>
      <trkpt lat="12.954417765140533" lon="99.707578020170331">
        <ele>71.7554931640625</ele>
        <time>2013-01-26T07:48:48Z</time>
      </trkpt>
      <trkpt lat="12.954669054597616" lon="99.707100335508585">
        <ele>70.794189453125</ele>
        <time>2013-01-26T07:49:20Z</time>
      </trkpt>
      <trkpt lat="12.954321205615997" lon="99.705557143315673">
        <ele>76.0814208984375</ele>
        <time>2013-01-26T07:50:06Z</time>
      </trkpt>
      <trkpt lat="12.954378705471754" lon="99.703963994979858">
        <ele>83.77197265625</ele>
        <time>2013-01-26T07:50:56Z</time>
      </trkpt>
      <trkpt lat="12.952180551365018" lon="99.703688817098737">
        <ele>85.694580078125</ele>
        <time>2013-01-26T07:52:11Z</time>
      </trkpt>
      <trkpt lat="12.951563810929656" lon="99.703647578135133">
        <ele>81.3687744140625</ele>
        <time>2013-01-26T07:52:27Z</time>
      </trkpt>
      <trkpt lat="12.950955955311656" lon="99.703373489901423">
        <ele>78.9654541015625</ele>
        <time>2013-01-26T07:52:44Z</time>
      </trkpt>
      <trkpt lat="12.950650686398149" lon="99.703080793842673">
        <ele>80.407470703125</ele>
        <time>2013-01-26T07:53:06Z</time>
      </trkpt>
      <trkpt lat="12.951245382428169" lon="99.703510450199246">
        <ele>81.3687744140625</ele>
        <time>2013-01-26T07:53:36Z</time>
      </trkpt>
      <trkpt lat="12.951416373252869" lon="99.703561328351498">
        <ele>82.810791015625</ele>
        <time>2013-01-26T07:53:55Z</time>
      </trkpt>
      <trkpt lat="12.951490720734" lon="99.703443897888064">
        <ele>83.77197265625</ele>
        <time>2013-01-26T07:54:06Z</time>
      </trkpt>
      <trkpt lat="12.951499689370394" lon="99.703377261757851">
        <ele>83.2913818359375</ele>
        <time>2013-01-26T07:54:16Z</time>
      </trkpt>
      <trkpt lat="12.95158451423049" lon="99.703608183190227">
        <ele>83.2913818359375</ele>
        <time>2013-01-26T07:54:31Z</time>
      </trkpt>
      <trkpt lat="12.951836474239826" lon="99.703680938109756">
        <ele>85.2139892578125</ele>
        <time>2013-01-26T07:55:11Z</time>
      </trkpt>
      <trkpt lat="12.950920667499304" lon="99.70330199226737">
        <ele>82.810791015625</ele>
        <time>2013-01-26T07:55:39Z</time>
      </trkpt>
      <trkpt lat="12.950526718050241" lon="99.702920950949192">
        <ele>81.849365234375</ele>
        <time>2013-01-26T07:55:53Z</time>
      </trkpt>
      <trkpt lat="12.95000184327364" lon="99.702481320127845">
        <ele>79.446044921875</ele>
        <time>2013-01-26T07:56:12Z</time>
      </trkpt>
      <trkpt lat="12.94829654507339" lon="99.703600304201245">
        <ele>72.7169189453125</ele>
        <time>2013-01-26T07:56:57Z</time>
      </trkpt>
      <trkpt lat="12.947586178779602" lon="99.703898280858994">
        <ele>73.1976318359375</ele>
        <time>2013-01-26T07:57:14Z</time>
      </trkpt>
      <trkpt lat="12.944957446306944" lon="99.705018186941743">
        <ele>62.6229248046875</ele>
        <time>2013-01-26T07:58:05Z</time>
      </trkpt>
      <trkpt lat="12.942281356081367" lon="99.704945851117373">
        <ele>71.27490234375</ele>
        <time>2013-01-26T07:59:27Z</time>
      </trkpt>
      <trkpt lat="12.942144563421607" lon="99.706093585118651">
        <ele>76.0814208984375</ele>
        <time>2013-01-26T08:00:02Z</time>
      </trkpt>
      <trkpt lat="12.94195462949574" lon="99.70703705213964">
        <ele>76.5621337890625</ele>
        <time>2013-01-26T08:00:32Z</time>
      </trkpt>
      <trkpt lat="12.939944481477141" lon="99.71171130426228">
        <ele>66.948974609375</ele>
        <time>2013-01-26T08:02:19Z</time>
      </trkpt>
      <trkpt lat="12.940026288852096" lon="99.711346188560128">
        <ele>67.4296875</ele>
        <time>2013-01-26T08:02:35Z</time>
      </trkpt>
      <trkpt lat="12.939930818974972" lon="99.711244348436594">
        <ele>67.4296875</ele>
        <time>2013-01-26T08:02:39Z</time>
      </trkpt>
      <trkpt lat="12.937615988776088" lon="99.710488552227616">
        <ele>71.27490234375</ele>
        <time>2013-01-26T08:03:49Z</time>
      </trkpt>
      <trkpt lat="12.937417840585113" lon="99.709945991635323">
        <ele>78.0040283203125</ele>
        <time>2013-01-26T08:04:20Z</time>
      </trkpt>
      <trkpt lat="12.937051551416516" lon="99.709648350253701">
        <ele>78.0040283203125</ele>
        <time>2013-01-26T08:04:36Z</time>
      </trkpt>
      <trkpt lat="12.936013368889689" lon="99.709231602028012">
        <ele>81.3687744140625</ele>
        <time>2013-01-26T08:05:20Z</time>
      </trkpt>
      <trkpt lat="12.935735508799553" lon="99.708379162475467">
        <ele>86.17529296875</ele>
        <time>2013-01-26T08:06:03Z</time>
      </trkpt>
      <trkpt lat="12.935400903224945" lon="99.708278411999345">
        <ele>84.252685546875</ele>
        <time>2013-01-26T08:06:17Z</time>
      </trkpt>
      <trkpt lat="12.934661284089088" lon="99.708406319841743">
        <ele>81.849365234375</ele>
        <time>2013-01-26T08:06:44Z</time>
      </trkpt>
      <trkpt lat="12.93453823775053" lon="99.708745116367936">
        <ele>78.0040283203125</ele>
        <time>2013-01-26T08:06:58Z</time>
      </trkpt>
      <trkpt lat="12.934228191152215" lon="99.708884255960584">
        <ele>78.4847412109375</ele>
        <time>2013-01-26T08:07:12Z</time>
      </trkpt>
      <trkpt lat="12.933921162039042" lon="99.708821643143892">
        <ele>79.446044921875</ele>
        <time>2013-01-26T08:07:24Z</time>
      </trkpt>
      <trkpt lat="12.933226972818375" lon="99.708678983151913">
        <ele>75.1202392578125</ele>
        <time>2013-01-26T08:07:51Z</time>
      </trkpt>
      <trkpt lat="12.933117086067796" lon="99.708163412287831">
        <ele>74.6395263671875</ele>
        <time>2013-01-26T08:08:08Z</time>
      </trkpt>
      <trkpt lat="12.932826988399029" lon="99.708255277946591">
        <ele>76.0814208984375</ele>
        <time>2013-01-26T08:08:19Z</time>
      </trkpt>
      <trkpt lat="12.932694889605045" lon="99.708831617608666">
        <ele>72.2362060546875</ele>
        <time>2013-01-26T08:08:35Z</time>
      </trkpt>
      <trkpt lat="12.932560527697206" lon="99.708890123292804">
        <ele>72.2362060546875</ele>
        <time>2013-01-26T08:08:39Z</time>
      </trkpt>
      <trkpt lat="12.932117125019431" lon="99.709008559584618">
        <ele>75.600830078125</ele>
        <time>2013-01-26T08:08:51Z</time>
      </trkpt>
      <trkpt lat="12.931230403482914" lon="99.708959525451064">
        <ele>74.1588134765625</ele>
        <time>2013-01-26T08:09:21Z</time>
      </trkpt>
      <trkpt lat="12.930746767669916" lon="99.709020461887121">
        <ele>71.7554931640625</ele>
        <time>2013-01-26T08:09:40Z</time>
      </trkpt>
      <trkpt lat="12.930422807112336" lon="99.706725664436817">
        <ele>76.0814208984375</ele>
        <time>2013-01-26T08:11:11Z</time>
      </trkpt>
      <trkpt lat="12.929889298975468" lon="99.705457733944058">
        <ele>72.2362060546875</ele>
        <time>2013-01-26T08:11:43Z</time>
      </trkpt>
      <trkpt lat="12.930516684427857" lon="99.704438410699368">
        <ele>72.7169189453125</ele>
        <time>2013-01-26T08:12:15Z</time>
      </trkpt>
      <trkpt lat="12.929741023108363" lon="99.704029960557818">
        <ele>68.87158203125</ele>
        <time>2013-01-26T08:12:41Z</time>
      </trkpt>
      <trkpt lat="12.929415386170149" lon="99.704366829246283">
        <ele>68.390869140625</ele>
        <time>2013-01-26T08:12:53Z</time>
      </trkpt>
      <trkpt lat="12.929194774478674" lon="99.704493815079331">
        <ele>67.4296875</ele>
        <time>2013-01-26T08:13:00Z</time>
      </trkpt>
      <trkpt lat="12.927766581997275" lon="99.702128944918513">
        <ele>70.794189453125</ele>
        <time>2013-01-26T08:14:11Z</time>
      </trkpt>
      <trkpt lat="12.926004957407713" lon="99.698844328522682">
        <ele>77.0428466796875</ele>
        <time>2013-01-26T08:16:00Z</time>
      </trkpt>
      <trkpt lat="12.922408953309059" lon="99.700082754716277">
        <ele>68.390869140625</ele>
        <time>2013-01-26T08:27:04Z</time>
      </trkpt>
      <trkpt lat="12.921002889052033" lon="99.700834779068828">
        <ele>73.67822265625</ele>
        <time>2013-01-26T08:27:57Z</time>
      </trkpt>
      <trkpt lat="12.919598752632737" lon="99.701554868370295">
        <ele>72.2362060546875</ele>
        <time>2013-01-26T08:28:31Z</time>
      </trkpt>
      <trkpt lat="12.919178903102875" lon="99.701923504471779">
        <ele>69.8328857421875</ele>
        <time>2013-01-26T08:28:46Z</time>
      </trkpt>
      <trkpt lat="12.919790949672461" lon="99.703227980062366">
        <ele>72.7169189453125</ele>
        <time>2013-01-26T08:29:17Z</time>
      </trkpt>
      <trkpt lat="12.91969464160502" lon="99.703343398869038">
        <ele>72.7169189453125</ele>
        <time>2013-01-26T08:29:23Z</time>
      </trkpt>
      <trkpt lat="12.914694417268038" lon="99.705952685326338">
        <ele>73.67822265625</ele>
        <time>2013-01-26T08:31:53Z</time>
      </trkpt>
      <trkpt lat="12.913466049358249" lon="99.706570850685239">
        <ele>68.87158203125</ele>
        <time>2013-01-26T08:32:24Z</time>
      </trkpt>
      <trkpt lat="12.912683263421059" lon="99.705220861360431">
        <ele>72.2362060546875</ele>
        <time>2013-01-26T08:33:19Z</time>
      </trkpt>
      <trkpt lat="12.912289313971996" lon="99.705253047868609">
        <ele>68.390869140625</ele>
        <time>2013-01-26T08:33:31Z</time>
      </trkpt>
      <trkpt lat="12.906854236498475" lon="99.707472827285528">
        <ele>77.0428466796875</ele>
        <time>2013-01-26T08:37:00Z</time>
      </trkpt>
      <trkpt lat="12.906597079709172" lon="99.705459410324693">
        <ele>72.2362060546875</ele>
        <time>2013-01-26T08:37:54Z</time>
      </trkpt>
      <trkpt lat="12.906658099964261" lon="99.705042243003845">
        <ele>72.7169189453125</ele>
        <time>2013-01-26T08:38:05Z</time>
      </trkpt>
      <trkpt lat="12.906735129654408" lon="99.704336067661643">
        <ele>71.27490234375</ele>
        <time>2013-01-26T08:38:22Z</time>
      </trkpt>
      <trkpt lat="12.9067372251302" lon="99.704160382971168">
        <ele>69.8328857421875</ele>
        <time>2013-01-26T08:38:27Z</time>
      </trkpt>
      <trkpt lat="12.906569838523865" lon="99.703780766576529">
        <ele>71.27490234375</ele>
        <time>2013-01-26T08:38:38Z</time>
      </trkpt>
      <trkpt lat="12.905053468421102" lon="99.703656043857336">
        <ele>78.0040283203125</ele>
        <time>2013-01-26T08:39:39Z</time>
      </trkpt>
      <trkpt lat="12.904900582507253" lon="99.703517658635974">
        <ele>79.9266357421875</ele>
        <time>2013-01-26T08:40:03Z</time>
      </trkpt>
      <trkpt lat="12.904598331078887" lon="99.702513422816992">
        <ele>73.1976318359375</ele>
        <time>2013-01-26T08:40:31Z</time>
      </trkpt>
      <trkpt lat="12.902676528319716" lon="99.702644599601626">
        <ele>78.9654541015625</ele>
        <time>2013-01-26T08:41:36Z</time>
      </trkpt>
      <trkpt lat="12.89599078707397" lon="99.704043371602893">
        <ele>90.0206298828125</ele>
        <time>2013-01-26T08:45:27Z</time>
      </trkpt>
      <trkpt lat="12.894645910710096" lon="99.704340090975165">
        <ele>88.5787353515625</ele>
        <time>2013-01-26T08:46:19Z</time>
      </trkpt>
      <trkpt lat="12.89358870126307" lon="99.704532874748111">
        <ele>84.7333984375</ele>
        <time>2013-01-26T08:46:54Z</time>
      </trkpt>
      <trkpt lat="12.89203486405313" lon="99.704939816147089">
        <ele>80.88818359375</ele>
        <time>2013-01-26T08:47:39Z</time>
      </trkpt>
      <trkpt lat="12.892196467146277" lon="99.705776581540704">
        <ele>82.330078125</ele>
        <time>2013-01-26T08:48:20Z</time>
      </trkpt>
      <trkpt lat="12.889931090176105" lon="99.704160047695041">
        <ele>79.9266357421875</ele>
        <time>2013-01-26T08:49:32Z</time>
      </trkpt>
      <trkpt lat="12.889834698289633" lon="99.703933401033282">
        <ele>82.330078125</ele>
        <time>2013-01-26T08:50:02Z</time>
      </trkpt>
      <trkpt lat="12.889819024130702" lon="99.703864920884371">
        <ele>80.88818359375</ele>
        <time>2013-01-26T08:50:15Z</time>
      </trkpt>
      <trkpt lat="12.890453534200788" lon="99.703195039182901">
        <ele>80.407470703125</ele>
        <time>2013-01-26T08:50:37Z</time>
      </trkpt>
      <trkpt lat="12.890496198087931" lon="99.703001752495766">
        <ele>80.88818359375</ele>
        <time>2013-01-26T08:50:41Z</time>
      </trkpt>
      <trkpt lat="12.890244657173753" lon="99.701688559725881">
        <ele>76.0814208984375</ele>
        <time>2013-01-26T08:51:04Z</time>
      </trkpt>
      <trkpt lat="12.890367787331343" lon="99.700726820155978">
        <ele>73.67822265625</ele>
        <time>2013-01-26T08:51:18Z</time>
      </trkpt>
      <trkpt lat="12.890720162540674" lon="99.699939340353012">
        <ele>76.0814208984375</ele>
        <time>2013-01-26T08:51:35Z</time>
      </trkpt>
      <trkpt lat="12.891843421384692" lon="99.698676522821188">
        <ele>78.9654541015625</ele>
        <time>2013-01-26T08:52:10Z</time>
      </trkpt>
      <trkpt lat="12.892758389934897" lon="99.698152570053935">
        <ele>80.407470703125</ele>
        <time>2013-01-26T08:52:29Z</time>
      </trkpt>
      <trkpt lat="12.893496751785278" lon="99.698006557300687">
        <ele>78.4847412109375</ele>
        <time>2013-01-26T08:52:45Z</time>
      </trkpt>
      <trkpt lat="12.892612041905522" lon="99.693288132548332">
        <ele>81.849365234375</ele>
        <time>2013-01-26T08:55:20Z</time>
      </trkpt>
      <trkpt lat="12.892971206456423" lon="99.693118231371045">
        <ele>86.17529296875</ele>
        <time>2013-01-26T08:55:44Z</time>
      </trkpt>
      <trkpt lat="12.896068738773465" lon="99.692029841244221">
        <ele>88.0980224609375</ele>
        <time>2013-01-26T08:57:27Z</time>
      </trkpt>
      <trkpt lat="12.896752366796136" lon="99.691509241238236">
        <ele>87.6171875</ele>
        <time>2013-01-26T08:57:49Z</time>
      </trkpt>
      <trkpt lat="12.896101344376802" lon="99.689777959138155">
        <ele>93.3851318359375</ele>
        <time>2013-01-26T08:58:50Z</time>
      </trkpt>
      <trkpt lat="12.895758608356118" lon="99.68943614512682">
        <ele>98.19189453125</ele>
        <time>2013-01-26T08:59:08Z</time>
      </trkpt>
      <trkpt lat="12.895772019401193" lon="99.689057031646371">
        <ele>100.5950927734375</ele>
        <time>2013-01-26T08:59:25Z</time>
      </trkpt>
      <trkpt lat="12.896482469514012" lon="99.687028862535954">
        <ele>113.09228515625</ele>
        <time>2013-01-26T09:01:00Z</time>
      </trkpt>
      <trkpt lat="12.896576430648565" lon="99.686713619157672">
        <ele>114.5341796875</ele>
        <time>2013-01-26T09:01:16Z</time>
      </trkpt>
      <trkpt lat="12.897158889099956" lon="99.685196746140718">
        <ele>110.208251953125</ele>
        <time>2013-01-26T09:01:48Z</time>
      </trkpt>
      <trkpt lat="12.89866846986115" lon="99.68250447884202">
        <ele>102.037109375</ele>
        <time>2013-01-26T09:02:49Z</time>
      </trkpt>
      <trkpt lat="12.8981046192348" lon="99.681856222450733">
        <ele>105.8824462890625</ele>
        <time>2013-01-26T09:03:18Z</time>
      </trkpt>
      <trkpt lat="12.898760084062815" lon="99.681389853358269">
        <ele>104.9210205078125</ele>
        <time>2013-01-26T09:03:37Z</time>
      </trkpt>
      <trkpt lat="12.899032160639763" lon="99.680916192010045">
        <ele>103.959716796875</ele>
        <time>2013-01-26T09:03:48Z</time>
      </trkpt>
      <trkpt lat="12.89949718862772" lon="99.680591225624084">
        <ele>104.9210205078125</ele>
        <time>2013-01-26T09:04:02Z</time>
      </trkpt>
      <trkpt lat="12.899789800867438" lon="99.680652748793364">
        <ele>105.4017333984375</ele>
        <time>2013-01-26T09:04:09Z</time>
      </trkpt>
      <trkpt lat="12.900045700371265" lon="99.68058074824512">
        <ele>104.4404296875</ele>
        <time>2013-01-26T09:04:19Z</time>
      </trkpt>
      <trkpt lat="12.899801786988974" lon="99.680227031931281">
        <ele>119.8214111328125</ele>
        <time>2013-01-26T09:07:41Z</time>
      </trkpt>
    </trkseg>
  </trk>

</gpx>
